Wetterdaten: Freitag, 11.06.2021
Datum Zeit Temp. Aussen Temp. o. S. Temp +5cm Feuchte Auss Luftdruck Regen Sonnenschein Regendauer Solar Windben Empfang
11.06.2021 00:00 20,4 C 18,9 C 16,7 C 67 % 1019,5 hPa 0,0 l/m 0 min 0 min 0 W/m 3,2 km/h (1 Bft) 100,00 %
11.06.2021 00:02 20,4 C 18,9 C 16,7 C 66 % 1019,5 hPa 0,0 l/m 0 min 0 min 0 W/m 6,4 km/h (2 Bft) 97,87 %
11.06.2021 00:04 20,4 C 19,4 C 16,7 C 66 % 1019,5 hPa 0,0 l/m 0 min 0 min 0 W/m 9,7 km/h (2 Bft) 97,87 %
11.06.2021 00:08 20,4 C 19,4 C 17,3 C 67 % 1019,5 hPa 0,0 l/m 0 min 0 min 0 W/m 6,4 km/h (2 Bft) 97,56 %
11.06.2021 00:10 20,4 C 19,4 C 17,3 C 68 % 1019,5 hPa 0,0 l/m 0 min 0 min 0 W/m 3,2 km/h (1 Bft) 97,87 %
11.06.2021 00:12 20,4 C 19,4 C 17,3 C 68 % 1019,5 hPa 0,0 l/m 0 min 0 min 0 W/m 9,7 km/h (2 Bft) 97,87 %
11.06.2021 00:14 20,4 C 19,4 C 17,3 C 68 % 1019,5 hPa 0,0 l/m 0 min 0 min 0 W/m 9,7 km/h (2 Bft) 93,62 %
11.06.2021 00:16 20,4 C 19,4 C 17,3 C 69 % 1019,5 hPa 0,0 l/m 0 min 0 min 0 W/m 6,4 km/h (2 Bft) 97,87 %
11.06.2021 00:18 20,4 C 19,4 C 17,3 C 69 % 1019,5 hPa 0,0 l/m 0 min 0 min 0 W/m 3,2 km/h (1 Bft) 97,87 %
11.06.2021 00:20 20,4 C 19,4 C 17,3 C 70 % 1019,5 hPa 0,0 l/m 0 min 0 min 0 W/m 12,9 km/h (3 Bft) 95,65 %
11.06.2021 00:22 20,4 C 19,4 C 17,3 C 70 % 1019,5 hPa 0,0 l/m 0 min 0 min 0 W/m 6,4 km/h (2 Bft) 97,87 %
11.06.2021 00:24 20,4 C 19,4 C 17,3 C 70 % 1019,5 hPa 0,0 l/m 0 min 0 min 0 W/m 6,4 km/h (2 Bft) 95,74 %
11.06.2021 00:26 20,4 C 19,4 C 17,3 C 70 % 1019,5 hPa 0,0 l/m 0 min 0 min 0 W/m 9,7 km/h (2 Bft) 97,87 %
11.06.2021 00:28 20,4 C 19,4 C 17,3 C 70 % 1019,5 hPa 0,0 l/m 0 min 0 min 0 W/m 12,9 km/h (3 Bft) 95,74 %
11.06.2021 00:30 20,4 C 19,4 C 17,3 C 71 % 1019,5 hPa 0,0 l/m 0 min 0 min 0 W/m 12,9 km/h (3 Bft) 95,74 %
11.06.2021 00:32 20,4 C 19,4 C 17,3 C 71 % 1019,5 hPa 0,0 l/m 0 min 0 min 0 W/m 12,9 km/h (3 Bft) 93,48 %
11.06.2021 00:34 20,4 C 19,4 C 17,3 C 71 % 1019,5 hPa 0,0 l/m 0 min 0 min 0 W/m 12,9 km/h (3 Bft) 95,74 %
11.06.2021 00:36 20,4 C 19,4 C 17,3 C 71 % 1019,6 hPa 0,0 l/m 0 min 0 min 0 W/m 16,1 km/h (3 Bft) 93,62 %
11.06.2021 00:38 20,4 C 19,4 C 17,3 C 71 % 1019,6 hPa 0,0 l/m 0 min 0 min 0 W/m 6,4 km/h (2 Bft) 95,74 %
11.06.2021 00:40 20,4 C 19,4 C 17,3 C 71 % 1019,6 hPa 0,0 l/m 0 min 0 min 0 W/m 9,7 km/h (2 Bft) 93,62 %
11.06.2021 00:42 20,4 C 19,4 C 17,3 C 71 % 1019,6 hPa 0,0 l/m 0 min 0 min 0 W/m 12,9 km/h (3 Bft) 93,62 %
11.06.2021 00:44 20,3 C 18,9 C 17,3 C 71 % 1019,6 hPa 0,0 l/m 0 min 0 min 0 W/m 12,9 km/h (3 Bft) 93,48 %
11.06.2021 00:46 20,3 C 18,9 C 16,7 C 72 % 1019,6 hPa 0,0 l/m 0 min 0 min 0 W/m 9,7 km/h (2 Bft) 95,74 %
11.06.2021 00:48 20,3 C 18,9 C 16,7 C 72 % 1019,6 hPa 0,0 l/m 0 min 0 min 0 W/m 9,7 km/h (2 Bft) 95,74 %
11.06.2021 00:50 20,2 C 18,9 C 16,7 C 72 % 1019,7 hPa 0,0 l/m 0 min 0 min 0 W/m 16,1 km/h (3 Bft) 93,62 %
11.06.2021 00:52 20,2 C 18,9 C 16,7 C 72 % 1019,7 hPa 0,0 l/m 0 min 0 min 0 W/m 6,4 km/h (2 Bft) 97,87 %
11.06.2021 00:54 20,1 C 18,9 C 16,7 C 72 % 1019,7 hPa 0,0 l/m 0 min 0 min 0 W/m 6,4 km/h (2 Bft) 95,74 %
11.06.2021 00:56 20,1 C 18,9 C 16,7 C 73 % 1019,7 hPa 0,0 l/m 0 min 0 min 0 W/m 9,7 km/h (2 Bft) 97,83 %
11.06.2021 00:58 20,0 C 18,9 C 16,7 C 73 % 1019,7 hPa 0,0 l/m 0 min 0 min 0 W/m 9,7 km/h (2 Bft) 97,87 %
11.06.2021 01:00 20,0 C 18,9 C 16,7 C 73 % 1019,6 hPa 0,0 l/m 0 min 0 min 0 W/m 6,4 km/h (2 Bft) 97,87 %
11.06.2021 01:02 20,0 C 18,9 C 16,7 C 73 % 1019,6 hPa 0,0 l/m 0 min 0 min 0 W/m 3,2 km/h (1 Bft) 97,87 %
11.06.2021 01:04 20,0 C 18,9 C 16,7 C 74 % 1019,7 hPa 0,0 l/m 0 min 0 min 0 W/m 3,2 km/h (1 Bft) 97,87 %
11.06.2021 01:06 20,0 C 18,9 C 16,7 C 74 % 1019,7 hPa 0,0 l/m 0 min 0 min 0 W/m 9,7 km/h (2 Bft) 97,87 %
11.06.2021 01:08 19,9 C 18,9 C 16,7 C 74 % 1019,7 hPa 0,0 l/m 0 min 0 min 0 W/m 6,4 km/h (2 Bft) 97,83 %
11.06.2021 01:10 19,9 C 18,9 C 16,7 C 74 % 1019,7 hPa 0,0 l/m 0 min 0 min 0 W/m 6,4 km/h (2 Bft) 97,87 %
11.06.2021 01:12 19,9 C 18,9 C 16,7 C 75 % 1019,8 hPa 0,0 l/m 0 min 0 min 0 W/m 6,4 km/h (2 Bft) 95,74 %
11.06.2021 01:14 19,9 C 18,9 C 16,7 C 75 % 1019,7 hPa 0,0 l/m 0 min 0 min 0 W/m 9,7 km/h (2 Bft) 97,87 %
11.06.2021 01:16 19,9 C 18,9 C 16,7 C 75 % 1019,8 hPa 0,0 l/m 0 min 0 min 0 W/m 9,7 km/h (2 Bft) 100,00 %
11.06.2021 01:18 19,8 C 18,3 C 16,7 C 75 % 1019,8 hPa 0,0 l/m 0 min 0 min 0 W/m 9,7 km/h (2 Bft) 100,00 %
11.06.2021 01:20 19,8 C 18,3 C 16,1 C 75 % 1019,7 hPa 0,0 l/m 0 min 0 min 0 W/m 9,7 km/h (2 Bft) 100,00 %
11.06.2021 01:22 19,8 C 18,3 C 16,1 C 76 % 1019,7 hPa 0,0 l/m 0 min 0 min 0 W/m 6,4 km/h (2 Bft) 100,00 %
11.06.2021 01:24 19,7 C 18,3 C 16,1 C 76 % 1019,8 hPa 0,0 l/m 0 min 0 min 0 W/m 12,9 km/h (3 Bft) 100,00 %
11.06.2021 01:26 19,7 C 18,3 C 16,1 C 77 % 1019,7 hPa 0,0 l/m 0 min 0 min 0 W/m 6,4 km/h (2 Bft) 100,00 %
11.06.2021 01:28 19,6 C 18,3 C 16,1 C 77 % 1019,8 hPa 0,0 l/m 0 min 0 min 0 W/m 9,7 km/h (2 Bft) 100,00 %
11.06.2021 01:30 19,6 C 18,3 C 16,1 C 77 % 1019,8 hPa 0,0 l/m 0 min 0 min 0 W/m 6,4 km/h (2 Bft) 100,00 %
11.06.2021 01:32 19,6 C 18,3 C 16,1 C 78 % 1019,8 hPa 0,0 l/m 0 min 0 min 0 W/m 6,4 km/h (2 Bft) 100,00 %
11.06.2021 01:34 19,6 C 18,3 C 16,1 C 78 % 1019,9 hPa 0,0 l/m 0 min 0 min 0 W/m 3,2 km/h (1 Bft) 100,00 %
11.06.2021 01:36 19,5 C 18,3 C 16,1 C 78 % 1019,8 hPa 0,0 l/m 0 min 0 min 0 W/m 9,7 km/h (2 Bft) 100,00 %
11.06.2021 01:38 19,5 C 18,3 C 16,1 C 78 % 1019,9 hPa 0,0 l/m 0 min 0 min 0 W/m 3,2 km/h (1 Bft) 100,00 %
11.06.2021 01:40 19,5 C 18,3 C 16,1 C 78 % 1019,8 hPa 0,0 l/m 0 min 0 min 0 W/m 3,2 km/h (1 Bft) 100,00 %
11.06.2021 01:42 19,5 C 18,3 C 16,1 C 79 % 1019,8 hPa 0,0 l/m 0 min 0 min 0 W/m 6,4 km/h (2 Bft) 100,00 %
11.06.2021 01:44 19,5 C 18,3 C 16,1 C 79 % 1019,8 hPa 0,0 l/m 0 min 0 min 0 W/m 3,2 km/h (1 Bft) 100,00 %
11.06.2021 01:46 19,4 C 18,3 C 16,1 C 79 % 1019,8 hPa 0,0 l/m 0 min 0 min 0 W/m 6,4 km/h (2 Bft) 100,00 %
11.06.2021 01:48 19,4 C 18,3 C 16,1 C 79 % 1019,8 hPa 0,0 l/m 0 min 0 min 0 W/m 3,2 km/h (1 Bft) 100,00 %
11.06.2021 01:50 19,4 C 18,3 C 16,1 C 79 % 1019,7 hPa 0,0 l/m 0 min 0 min 0 W/m 3,2 km/h (1 Bft) 100,00 %
11.06.2021 01:52 19,4 C 18,3 C 16,1 C 79 % 1019,8 hPa 0,0 l/m 0 min 0 min 0 W/m 3,2 km/h (1 Bft) 100,00 %
11.06.2021 01:54 19,4 C 17,8 C 16,1 C 80 % 1019,8 hPa 0,0 l/m 0 min 0 min 0 W/m 3,2 km/h (1 Bft) 97,83 %
11.06.2021 01:56 19,3 C 17,8 C 16,1 C 80 % 1019,7 hPa 0,0 l/m 0 min 0 min 0 W/m 0,0 km/h (0 Bft) 100,00 %
11.06.2021 01:58 19,3 C 17,8 C 15,6 C 80 % 1019,7 hPa 0,0 l/m 0 min 0 min 0 W/m 0,0 km/h (0 Bft) 100,00 %
11.06.2021 02:00 19,3 C 17,8 C 15,6 C 80 % 1019,8 hPa 0,0 l/m 0 min 0 min 0 W/m 0,0 km/h (0 Bft) 100,00 %
11.06.2021 02:02 19,3 C 17,8 C 15,6 C 80 % 1019,8 hPa 0,0 l/m 0 min 0 min 0 W/m 3,2 km/h (1 Bft) 100,00 %
11.06.2021 02:04 19,2 C 17,8 C 15,6 C 80 % 1019,7 hPa 0,0 l/m 0 min 0 min 0 W/m 3,2 km/h (1 Bft) 100,00 %
11.06.2021 02:06 19,2 C 17,8 C 15,6 C 80 % 1019,7 hPa 0,0 l/m 0 min 0 min 0 W/m 0,0 km/h (0 Bft) 100,00 %
11.06.2021 02:08 19,1 C 17,8 C 15,6 C 81 % 1019,8 hPa 0,0 l/m 0 min 0 min 0 W/m 0,0 km/h (0 Bft) 97,87 %
11.06.2021 02:10 19,1 C 17,8 C 15,6 C 81 % 1019,7 hPa 0,0 l/m 0 min 0 min 0 W/m 0,0 km/h (0 Bft) 100,00 %
11.06.2021 02:12 19,1 C 17,8 C 15,6 C 81 % 1019,7 hPa 0,0 l/m 0 min 0 min 0 W/m 0,0 km/h (0 Bft) 100,00 %
11.06.2021 02:14 19,1 C 17,8 C 15,6 C 81 % 1019,7 hPa 0,0 l/m 0 min 0 min 0 W/m 0,0 km/h (0 Bft) 100,00 %
11.06.2021 02:16 19,0 C 17,2 C 15,6 C 82 % 1019,7 hPa 0,0 l/m 0 min 0 min 0 W/m 0,0 km/h (0 Bft) 97,56 %
11.06.2021 02:18 19,0 C 17,2 C 15,6 C 82 % 1019,7 hPa 0,0 l/m 0 min 0 min 0 W/m 0,0 km/h (0 Bft) 100,00 %
11.06.2021 02:20 19,0 C 17,2 C 15,6 C 82 % 1019,7 hPa 0,0 l/m 0 min 0 min 0 W/m 0,0 km/h (0 Bft) 97,87 %
11.06.2021 02:22 19,0 C 17,2 C 15,0 C 82 % 1019,7 hPa 0,0 l/m 0 min 0 min 0 W/m 0,0 km/h (0 Bft) 100,00 %
11.06.2021 02:24 19,0 C 17,2 C 15,0 C 82 % 1019,7 hPa 0,0 l/m 0 min 0 min 0 W/m 0,0 km/h (0 Bft) 97,87 %
11.06.2021 02:26 18,9 C 17,2 C 15,0 C 83 % 1019,7 hPa 0,0 l/m 0 min 0 min 0 W/m 0,0 km/h (0 Bft) 97,87 %
11.06.2021 02:28 18,9 C 17,2 C 15,0 C 83 % 1019,7 hPa 0,0 l/m 0 min 0 min 0 W/m 0,0 km/h (0 Bft) 97,87 %
11.06.2021 02:30 18,9 C 17,2 C 15,0 C 83 % 1019,7 hPa 0,0 l/m 0 min 0 min 0 W/m 0,0 km/h (0 Bft) 95,65 %
11.06.2021 02:32 18,8 C 17,2 C 15,0 C 83 % 1019,7 hPa 0,0 l/m 0 min 0 min 0 W/m 0,0 km/h (0 Bft) 97,87 %
11.06.2021 02:34 18,8 C 17,2 C 15,0 C 83 % 1019,7 hPa 0,0 l/m 0 min 0 min 0 W/m 0,0 km/h (0 Bft) 95,74 %
11.06.2021 02:36 18,8 C 17,2 C 15,0 C 83 % 1019,7 hPa 0,0 l/m 0 min 0 min 0 W/m 0,0 km/h (0 Bft) 96,23 %
11.06.2021 02:38 18,7 C 16,7 C 15,0 C 84 % 1019,7 hPa 0,0 l/m 0 min 0 min 0 W/m 0,0 km/h (0 Bft) 97,87 %
11.06.2021 02:40 18,7 C 16,7 C 15,0 C 84 % 1019,7 hPa 0,0 l/m 0 min 0 min 0 W/m 0,0 km/h (0 Bft) 97,83 %
11.06.2021 02:42 18,6 C 16,7 C 15,0 C 84 % 1019,7 hPa 0,0 l/m 0 min 0 min 0 W/m 0,0 km/h (0 Bft) 97,87 %
11.06.2021 02:44 18,6 C 16,7 C 15,0 C 84 % 1019,7 hPa 0,0 l/m 0 min 0 min 0 W/m 0,0 km/h (0 Bft) 97,87 %
11.06.2021 02:46 18,6 C 16,7 C 15,0 C 84 % 1019,7 hPa 0,0 l/m 0 min 0 min 0 W/m 3,2 km/h (1 Bft) 97,56 %
11.06.2021 02:48 18,5 C 16,7 C 15,0 C 84 % 1019,7 hPa 0,0 l/m 0 min 0 min 0 W/m 0,0 km/h (0 Bft) 97,87 %
11.06.2021 02:50 18,5 C 16,7 C 15,0 C 85 % 1019,6 hPa 0,0 l/m 0 min 0 min 0 W/m 0,0 km/h (0 Bft) 97,87 %
11.06.2021 02:52 18,5 C 16,7 C 15,0 C 85 % 1019,7 hPa 0,0 l/m 0 min 0 min 0 W/m 0,0 km/h (0 Bft) 95,74 %
11.06.2021 02:54 18,5 C 16,7 C 15,0 C 85 % 1019,7 hPa 0,0 l/m 0 min 0 min 0 W/m 0,0 km/h (0 Bft) 97,83 %
11.06.2021 02:56 18,4 C 16,7 C 15,0 C 85 % 1019,6 hPa 0,0 l/m 0 min 0 min 0 W/m 0,0 km/h (0 Bft) 97,87 %
11.06.2021 02:58 18,4 C 16,7 C 15,0 C 85 % 1019,7 hPa 0,0 l/m 0 min 0 min 0 W/m 0,0 km/h (0 Bft) 97,87 %
11.06.2021 03:00 18,4 C 16,7 C 15,0 C 85 % 1019,6 hPa 0,0 l/m 0 min 0 min 0 W/m 0,0 km/h (0 Bft) 95,74 %
11.06.2021 03:02 18,4 C 16,7 C 15,0 C 86 % 1019,6 hPa 0,0 l/m 0 min 0 min 0 W/m 0,0 km/h (0 Bft) 97,87 %
11.06.2021 03:04 18,3 C 16,7 C 15,0 C 86 % 1019,6 hPa 0,0 l/m 0 min 0 min 0 W/m 0,0 km/h (0 Bft) 95,74 %
11.06.2021 03:06 18,3 C 16,7 C 15,0 C 86 % 1019,5 hPa 0,0 l/m 0 min 0 min 0 W/m 0,0 km/h (0 Bft) 94,23 %
11.06.2021 03:08 18,3 C 16,7 C 15,0 C 86 % 1019,6 hPa 0,0 l/m 0 min 0 min 0 W/m 0,0 km/h (0 Bft) 91,49 %
11.06.2021 03:10 18,3 C 16,7 C 15,0 C 86 % 1019,6 hPa 0,0 l/m 0 min 0 min 0 W/m 0,0 km/h (0 Bft) 91,49 %
11.06.2021 03:12 18,2 C 16,7 C 15,0 C 86 % 1019,6 hPa 0,0 l/m 0 min 0 min 0 W/m 0,0 km/h (0 Bft) 91,49 %
11.06.2021 03:14 18,1 C 16,7 C 15,0 C 86 % 1019,6 hPa 0,0 l/m 0 min 0 min 0 W/m 3,2 km/h (1 Bft) 93,62 %
11.06.2021 03:16 18,1 C 16,7 C 15,0 C 86 % 1019,6 hPa 0,0 l/m 0 min 0 min 0 W/m 3,2 km/h (1 Bft) 90,24 %
11.06.2021 03:18 18,1 C 16,7 C 15,0 C 86 % 1019,6 hPa 0,0 l/m 0 min 0 min 0 W/m 3,2 km/h (1 Bft) 93,48 %
11.06.2021 03:20 18,0 C 16,7 C 15,0 C 86 % 1019,6 hPa 0,0 l/m 0 min 0 min 0 W/m 3,2 km/h (1 Bft) 95,74 %
11.06.2021 03:22 18,0 C 16,7 C 15,0 C 86 % 1019,6 hPa 0,0 l/m 0 min 0 min 0 W/m 0,0 km/h (0 Bft) 93,62 %
11.06.2021 03:24 18,0 C 16,7 C 15,0 C 86 % 1019,6 hPa 0,0 l/m 0 min 0 min 0 W/m 0,0 km/h (0 Bft) 93,62 %
11.06.2021 03:26 18,0 C 16,7 C 15,0 C 87 % 1019,6 hPa 0,0 l/m 0 min 0 min 0 W/m 0,0 km/h (0 Bft) 89,36 %
11.06.2021 03:28 18,0 C 16,7 C 15,0 C 87 % 1019,5 hPa 0,0 l/m 0 min 0 min 0 W/m 0,0 km/h (0 Bft) 93,62 %
11.06.2021 03:30 18,0 C 16,7 C 14,5 C 87 % 1019,5 hPa 0,0 l/m 0 min 0 min 0 W/m 0,0 km/h (0 Bft) 91,30 %
11.06.2021 03:32 17,9 C 16,7 C 14,5 C 87 % 1019,5 hPa 0,0 l/m 0 min 0 min 0 W/m 0,0 km/h (0 Bft) 93,62 %
11.06.2021 03:34 17,9 C 16,7 C 14,5 C 87 % 1019,5 hPa 0,0 l/m 0 min 0 min 0 W/m 0,0 km/h (0 Bft) 93,62 %
11.06.2021 03:36 17,9 C 16,7 C 14,5 C 87 % 1019,6 hPa 0,0 l/m 0 min 0 min 0 W/m 0,0 km/h (0 Bft) 94,34 %
11.06.2021 03:38 17,9 C 16,7 C 14,5 C 87 % 1019,6 hPa 0,0 l/m 0 min 0 min 0 W/m 0,0 km/h (0 Bft) 93,62 %
11.06.2021 03:40 17,8 C 16,7 C 14,5 C 87 % 1019,6 hPa 0,0 l/m 0 min 0 min 0 W/m 0,0 km/h (0 Bft) 91,30 %
11.06.2021 03:42 17,8 C 16,7 C 14,5 C 87 % 1019,6 hPa 0,0 l/m 0 min 0 min 0 W/m 0,0 km/h (0 Bft) 91,49 %
11.06.2021 03:44 17,8 C 16,7 C 14,5 C 87 % 1019,6 hPa 0,0 l/m 0 min 0 min 0 W/m 3,2 km/h (1 Bft) 95,74 %
11.06.2021 03:46 17,8 C 16,1 C 14,5 C 87 % 1019,5 hPa 0,0 l/m 0 min 0 min 0 W/m 0,0 km/h (0 Bft) 95,12 %
11.06.2021 03:48 17,8 C 16,1 C 14,5 C 87 % 1019,6 hPa 0,0 l/m 0 min 0 min 0 W/m 0,0 km/h (0 Bft) 95,74 %
11.06.2021 03:50 17,7 C 16,1 C 14,5 C 88 % 1019,6 hPa 0,0 l/m 0 min 0 min 0 W/m 0,0 km/h (0 Bft) 95,74 %
11.06.2021 03:52 17,7 C 16,1 C 14,5 C 88 % 1019,5 hPa 0,0 l/m 0 min 0 min 0 W/m 0,0 km/h (0 Bft) 97,87 %
11.06.2021 03:54 17,6 C 16,1 C 14,5 C 88 % 1019,6 hPa 0,0 l/m 0 min 0 min 0 W/m 0,0 km/h (0 Bft) 95,65 %
11.06.2021 03:56 17,6 C 16,1 C 14,5 C 88 % 1019,5 hPa 0,0 l/m 0 min 0 min 0 W/m 0,0 km/h (0 Bft) 97,87 %
11.06.2021 03:58 17,6 C 16,1 C 14,5 C 88 % 1019,5 hPa 0,0 l/m 0 min 0 min 0 W/m 3,2 km/h (1 Bft) 94,34 %
11.06.2021 04:00 17,5 C 16,1 C 14,5 C 88 % 1019,5 hPa 0,0 l/m 0 min 0 min 0 W/m 3,2 km/h (1 Bft) 97,87 %
11.06.2021 04:05 17,5 C 16,1 C 14,5 C 88 % 1019,5 hPa 0,0 l/m 0 min 0 min 0 W/m 3,2 km/h (1 Bft) 100,00 %
11.06.2021 04:06 17,5 C 16,1 C 14,5 C 88 % 1019,5 hPa 0,0 l/m 0 min 0 min 0 W/m 0,0 km/h (0 Bft) 95,65 %
11.06.2021 04:08 17,5 C 16,1 C 14,5 C 88 % 1019,6 hPa 0,0 l/m 0 min 0 min 0 W/m 0,0 km/h (0 Bft) 100,00 %
11.06.2021 04:10 17,4 C 16,1 C 14,5 C 89 % 1019,6 hPa 0,0 l/m 0 min 0 min 0 W/m 3,2 km/h (1 Bft) 100,00 %
11.06.2021 04:12 17,4 C 16,1 C 14,5 C 89 % 1019,6 hPa 0,0 l/m 0 min 0 min 0 W/m 6,4 km/h (2 Bft) 100,00 %
11.06.2021 04:14 17,4 C 16,1 C 14,5 C 89 % 1019,5 hPa 0,0 l/m 0 min 0 min 0 W/m 3,2 km/h (1 Bft) 100,00 %
11.06.2021 04:16 17,4 C 16,1 C 14,5 C 89 % 1019,5 hPa 0,0 l/m 0 min 0 min 0 W/m 3,2 km/h (1 Bft) 97,83 %
11.06.2021 04:18 17,4 C 16,1 C 14,5 C 89 % 1019,5 hPa 0,0 l/m 0 min 0 min 0 W/m 0,0 km/h (0 Bft) 100,00 %
11.06.2021 04:20 17,4 C 16,1 C 14,5 C 89 % 1019,5 hPa 0,0 l/m 0 min 0 min 0 W/m 0,0 km/h (0 Bft) 100,00 %
11.06.2021 04:22 17,3 C 16,1 C 14,5 C 89 % 1019,5 hPa 0,0 l/m 0 min 0 min 0 W/m 0,0 km/h (0 Bft) 100,00 %
11.06.2021 04:24 17,3 C 16,1 C 14,5 C 89 % 1019,5 hPa 0,0 l/m 0 min 0 min 0 W/m 0,0 km/h (0 Bft) 100,00 %
11.06.2021 04:26 17,3 C 16,1 C 14,5 C 89 % 1019,5 hPa 0,0 l/m 0 min 0 min 0 W/m 0,0 km/h (0 Bft) 95,74 %
11.06.2021 04:28 17,3 C 16,1 C 14,5 C 89 % 1019,5 hPa 0,0 l/m 0 min 0 min 0 W/m 0,0 km/h (0 Bft) 100,00 %
11.06.2021 04:30 17,2 C 16,1 C 14,5 C 90 % 1019,5 hPa 0,0 l/m 0 min 0 min 0 W/m 3,2 km/h (1 Bft) 100,00 %
11.06.2021 04:32 17,2 C 16,1 C 14,5 C 90 % 1019,5 hPa 0,0 l/m 0 min 0 min 0 W/m 0,0 km/h (0 Bft) 100,00 %
11.06.2021 04:34 17,2 C 16,1 C 14,5 C 90 % 1019,5 hPa 0,0 l/m 0 min 0 min 0 W/m 0,0 km/h (0 Bft) 100,00 %
11.06.2021 04:36 17,2 C 16,1 C 14,5 C 90 % 1019,5 hPa 0,0 l/m 0 min 0 min 0 W/m 0,0 km/h (0 Bft) 100,00 %
11.06.2021 04:38 17,1 C 16,1 C 14,5 C 90 % 1019,5 hPa 0,0 l/m 0 min 0 min 0 W/m 0,0 km/h (0 Bft) 100,00 %
11.06.2021 04:40 17,1 C 16,1 C 14,5 C 90 % 1019,5 hPa 0,0 l/m 0 min 0 min 0 W/m 0,0 km/h (0 Bft) 100,00 %
11.06.2021 04:42 17,1 C 16,1 C 14,5 C 90 % 1019,5 hPa 0,0 l/m 0 min 0 min 0 W/m 0,0 km/h (0 Bft) 100,00 %
11.06.2021 04:44 17,1 C 16,1 C 14,5 C 90 % 1019,5 hPa 0,0 l/m 0 min 0 min 0 W/m 0,0 km/h (0 Bft) 100,00 %
11.06.2021 04:46 17,1 C 15,6 C 14,5 C 90 % 1019,5 hPa 0,0 l/m 0 min 0 min 0 W/m 0,0 km/h (0 Bft) 100,00 %
11.06.2021 04:48 17,1 C 15,6 C 14,5 C 90 % 1019,5 hPa 0,0 l/m 0 min 0 min 0 W/m 0,0 km/h (0 Bft) 100,00 %
11.06.2021 04:50 17,1 C 15,6 C 14,5 C 90 % 1019,5 hPa 0,0 l/m 0 min 0 min 0 W/m 0,0 km/h (0 Bft) 100,00 %
11.06.2021 04:52 17,0 C 15,6 C 14,5 C 90 % 1019,5 hPa 0,0 l/m 0 min 0 min 0 W/m 0,0 km/h (0 Bft) 97,87 %
11.06.2021 04:54 17,0 C 15,6 C 14,5 C 91 % 1019,5 hPa 0,0 l/m 0 min 0 min 0 W/m 0,0 km/h (0 Bft) 100,00 %
11.06.2021 04:56 17,0 C 15,6 C 14,5 C 91 % 1019,5 hPa 0,0 l/m 0 min 0 min 0 W/m 0,0 km/h (0 Bft) 100,00 %
11.06.2021 04:58 17,0 C 15,6 C 14,5 C 91 % 1019,5 hPa 0,0 l/m 0 min 0 min 0 W/m 0,0 km/h (0 Bft) 100,00 %
11.06.2021 05:00 17,0 C 15,6 C 14,5 C 91 % 1019,5 hPa 0,0 l/m 0 min 0 min 0 W/m 0,0 km/h (0 Bft) 97,87 %
11.06.2021 05:02 17,0 C 15,6 C 14,5 C 91 % 1019,5 hPa 0,0 l/m 0 min 0 min 0 W/m 0,0 km/h (0 Bft) 100,00 %
11.06.2021 05:04 17,0 C 16,1 C 14,5 C 91 % 1019,6 hPa 0,0 l/m 0 min 0 min 0 W/m 0,0 km/h (0 Bft) 100,00 %
11.06.2021 05:06 16,9 C 16,1 C 14,5 C 91 % 1019,5 hPa 0,0 l/m 0 min 0 min 0 W/m 0,0 km/h (0 Bft) 100,00 %
11.06.2021 05:08 16,9 C 15,6 C 14,5 C 91 % 1019,6 hPa 0,0 l/m 0 min 0 min 0 W/m 0,0 km/h (0 Bft) 100,00 %
11.06.2021 05:10 16,9 C 15,6 C 14,5 C 91 % 1019,5 hPa 0,0 l/m 0 min 0 min 0 W/m 0,0 km/h (0 Bft) 97,87 %
11.06.2021 05:12 16,9 C 15,6 C 14,5 C 91 % 1019,6 hPa 0,0 l/m 0 min 0 min 0 W/m 0,0 km/h (0 Bft) 100,00 %
11.06.2021 05:14 16,9 C 15,6 C 14,5 C 91 % 1019,5 hPa 0,0 l/m 0 min 0 min 0 W/m 0,0 km/h (0 Bft) 100,00 %
11.06.2021 05:16 16,9 C 15,6 C 14,5 C 91 % 1019,6 hPa 0,0 l/m 0 min 0 min 0 W/m 0,0 km/h (0 Bft) 100,00 %
11.06.2021 05:18 16,8 C 15,6 C 14,5 C 91 % 1019,6 hPa 0,0 l/m 0 min 0 min 0 W/m 0,0 km/h (0 Bft) 97,87 %
11.06.2021 05:20 16,8 C 15,6 C 14,5 C 92 % 1019,6 hPa 0,0 l/m 0 min 0 min 0 W/m 0,0 km/h (0 Bft) 100,00 %
11.06.2021 05:22 16,8 C 15,6 C 14,5 C 92 % 1019,6 hPa 0,0 l/m 0 min 0 min 0 W/m 0,0 km/h (0 Bft) 100,00 %
11.06.2021 05:24 16,8 C 15,6 C 13,9 C 92 % 1019,6 hPa 0,0 l/m 0 min 0 min 4 W/m 0,0 km/h (0 Bft) 100,00 %
11.06.2021 05:26 16,8 C 15,6 C 13,9 C 92 % 1019,6 hPa 0,0 l/m 0 min 0 min 5 W/m 0,0 km/h (0 Bft) 97,83 %
11.06.2021 05:28 16,8 C 15,6 C 13,9 C 92 % 1019,6 hPa 0,0 l/m 0 min 0 min 5 W/m 0,0 km/h (0 Bft) 97,87 %
11.06.2021 05:30 16,8 C 15,6 C 13,9 C 92 % 1019,6 hPa 0,0 l/m 0 min 0 min 6 W/m 0,0 km/h (0 Bft) 97,87 %
11.06.2021 05:32 16,8 C 15,6 C 13,9 C 92 % 1019,6 hPa 0,0 l/m 0 min 0 min 7 W/m 0,0 km/h (0 Bft) 97,87 %
11.06.2021 05:34 16,8 C 15,6 C 13,9 C 92 % 1019,6 hPa 0,0 l/m 0 min 0 min 7 W/m 0,0 km/h (0 Bft) 97,87 %
11.06.2021 05:36 16,8 C 15,6 C 13,9 C 92 % 1019,6 hPa 0,0 l/m 0 min 0 min 8 W/m 0,0 km/h (0 Bft) 97,87 %
11.06.2021 05:38 16,7 C 15,6 C 13,9 C 92 % 1019,6 hPa 0,0 l/m 0 min 0 min 9 W/m 0,0 km/h (0 Bft) 97,83 %
11.06.2021 05:40 16,7 C 15,6 C 13,9 C 92 % 1019,7 hPa 0,0 l/m 0 min 0 min 11 W/m 0,0 km/h (0 Bft) 95,74 %
11.06.2021 05:42 16,7 C 15,6 C 13,9 C 92 % 1019,7 hPa 0,0 l/m 0 min 0 min 11 W/m 0,0 km/h (0 Bft) 95,74 %
11.06.2021 05:44 16,7 C 15,6 C 13,9 C 92 % 1019,7 hPa 0,0 l/m 0 min 0 min 12 W/m 0,0 km/h (0 Bft) 97,87 %
11.06.2021 05:46 16,6 C 15,6 C 13,9 C 92 % 1019,7 hPa 0,0 l/m 0 min 0 min 12 W/m 0,0 km/h (0 Bft) 97,87 %
11.06.2021 05:48 16,7 C 15,6 C 13,9 C 92 % 1019,7 hPa 0,0 l/m 0 min 0 min 14 W/m 0,0 km/h (0 Bft) 97,87 %
11.06.2021 05:50 16,6 C 15,6 C 13,9 C 92 % 1019,7 hPa 0,0 l/m 0 min 0 min 14 W/m 0,0 km/h (0 Bft) 97,83 %
11.06.2021 05:52 16,6 C 15,6 C 13,9 C 92 % 1019,7 hPa 0,0 l/m 0 min 0 min 14 W/m 0,0 km/h (0 Bft) 95,74 %
11.06.2021 05:54 16,6 C 15,6 C 13,9 C 92 % 1019,6 hPa 0,0 l/m 0 min 0 min 16 W/m 0,0 km/h (0 Bft) 97,87 %
11.06.2021 05:56 16,6 C 15,6 C 13,9 C 92 % 1019,6 hPa 0,0 l/m 0 min 0 min 17 W/m 3,2 km/h (1 Bft) 95,74 %
11.06.2021 05:58 16,6 C 15,6 C 14,5 C 92 % 1019,6 hPa 0,0 l/m 0 min 0 min 18 W/m 0,0 km/h (0 Bft) 97,87 %
11.06.2021 06:00 16,6 C 15,6 C 14,5 C 92 % 1019,6 hPa 0,0 l/m 0 min 0 min 19 W/m 0,0 km/h (0 Bft) 95,74 %
11.06.2021 06:02 16,6 C 15,6 C 14,5 C 92 % 1019,6 hPa 0,0 l/m 0 min 0 min 20 W/m 0,0 km/h (0 Bft) 97,83 %
11.06.2021 06:04 16,6 C 15,6 C 14,5 C 92 % 1019,6 hPa 0,0 l/m 0 min 0 min 21 W/m 0,0 km/h (0 Bft) 97,87 %
11.06.2021 06:08 16,6 C 15,6 C 14,5 C 93 % 1019,6 hPa 0,0 l/m 0 min 0 min 23 W/m 0,0 km/h (0 Bft) 97,87 %
11.06.2021 06:10 16,6 C 15,6 C 14,5 C 93 % 1019,6 hPa 0,0 l/m 0 min 0 min 25 W/m 0,0 km/h (0 Bft) 97,87 %
11.06.2021 06:12 16,6 C 16,1 C 14,5 C 93 % 1019,6 hPa 0,0 l/m 0 min 0 min 25 W/m 0,0 km/h (0 Bft) 93,62 %
11.06.2021 06:14 16,6 C 16,1 C 14,5 C 93 % 1019,6 hPa 0,0 l/m 0 min 0 min 26 W/m 0,0 km/h (0 Bft) 97,83 %
11.06.2021 06:16 16,7 C 16,1 C 14,5 C 93 % 1019,6 hPa 0,0 l/m 0 min 0 min 26 W/m 0,0 km/h (0 Bft) 95,74 %
11.06.2021 06:18 16,6 C 16,1 C 14,5 C 93 % 1019,6 hPa 0,0 l/m 0 min 0 min 26 W/m 0,0 km/h (0 Bft) 97,87 %
11.06.2021 06:20 16,7 C 16,1 C 14,5 C 93 % 1019,6 hPa 0,0 l/m 0 min 0 min 28 W/m 0,0 km/h (0 Bft) 100,00 %
11.06.2021 06:22 16,7 C 16,1 C 14,5 C 93 % 1019,6 hPa 0,0 l/m 0 min 0 min 29 W/m 0,0 km/h (0 Bft) 100,00 %
11.06.2021 06:24 16,7 C 16,1 C 14,5 C 93 % 1019,6 hPa 0,0 l/m 0 min 0 min 30 W/m 0,0 km/h (0 Bft) 97,87 %
11.06.2021 06:26 16,8 C 16,1 C 14,5 C 93 % 1019,6 hPa 0,0 l/m 0 min 0 min 31 W/m 0,0 km/h (0 Bft) 97,83 %
11.06.2021 06:28 16,8 C 16,1 C 14,5 C 93 % 1019,6 hPa 0,0 l/m 0 min 0 min 32 W/m 0,0 km/h (0 Bft) 97,87 %
11.06.2021 06:30 16,8 C 16,1 C 14,5 C 93 % 1019,6 hPa 0,0 l/m 0 min 0 min 33 W/m 0,0 km/h (0 Bft) 97,87 %
11.06.2021 06:32 16,8 C 16,1 C 14,5 C 93 % 1019,6 hPa 0,0 l/m 0 min 0 min 33 W/m 0,0 km/h (0 Bft) 97,87 %
11.06.2021 06:34 16,8 C 16,1 C 14,5 C 93 % 1019,5 hPa 0,0 l/m 0 min 0 min 33 W/m 0,0 km/h (0 Bft) 97,87 %
11.06.2021 06:36 16,9 C 16,1 C 15,0 C 93 % 1019,5 hPa 0,0 l/m 0 min 0 min 33 W/m 0,0 km/h (0 Bft) 95,74 %
11.06.2021 06:38 16,9 C 16,7 C 15,0 C 93 % 1019,4 hPa 0,0 l/m 0 min 0 min 33 W/m 3,2 km/h (1 Bft) 97,87 %
11.06.2021 06:40 16,9 C 16,7 C 15,0 C 93 % 1019,5 hPa 0,0 l/m 0 min 0 min 33 W/m 3,2 km/h (1 Bft) 97,87 %
11.06.2021 06:42 16,9 C 16,7 C 15,0 C 93 % 1019,4 hPa 0,0 l/m 0 min 0 min 35 W/m 0,0 km/h (0 Bft) 97,87 %
11.06.2021 06:44 16,9 C 16,7 C 15,0 C 93 % 1019,4 hPa 0,0 l/m 0 min 0 min 35 W/m 0,0 km/h (0 Bft) 97,87 %
11.06.2021 06:46 17,0 C 16,7 C 15,0 C 93 % 1019,4 hPa 0,0 l/m 0 min 0 min 35 W/m 0,0 km/h (0 Bft) 95,74 %
11.06.2021 06:48 17,0 C 16,7 C 15,0 C 93 % 1019,3 hPa 0,0 l/m 0 min 0 min 35 W/m 3,2 km/h (1 Bft) 97,83 %
11.06.2021 06:50 17,0 C 16,7 C 15,0 C 93 % 1019,3 hPa 0,0 l/m 0 min 0 min 36 W/m 3,2 km/h (1 Bft) 95,74 %
11.06.2021 06:52 17,0 C 16,7 C 15,0 C 93 % 1019,2 hPa 0,0 l/m 0 min 0 min 37 W/m 3,2 km/h (1 Bft) 95,74 %
11.06.2021 06:54 17,0 C 16,7 C 15,0 C 93 % 1019,2 hPa 0,0 l/m 0 min 0 min 37 W/m 3,2 km/h (1 Bft) 97,87 %
11.06.2021 06:56 17,0 C 16,7 C 15,0 C 93 % 1019,2 hPa 0,0 l/m 0 min 0 min 37 W/m 6,4 km/h (2 Bft) 97,87 %
11.06.2021 06:58 17,1 C 16,7 C 15,0 C 93 % 1019,3 hPa 0,0 l/m 0 min 0 min 38 W/m 3,2 km/h (1 Bft) 97,87 %
11.06.2021 07:00 17,1 C 16,7 C 15,0 C 93 % 1019,3 hPa 0,0 l/m 0 min 0 min 39 W/m 3,2 km/h (1 Bft) 100,00 %
11.06.2021 07:02 17,1 C 16,7 C 15,0 C 93 % 1019,3 hPa 0,0 l/m 0 min 0 min 39 W/m 3,2 km/h (1 Bft) 97,87 %
11.06.2021 07:04 17,1 C 16,7 C 15,6 C 93 % 1019,3 hPa 0,0 l/m 0 min 0 min 40 W/m 3,2 km/h (1 Bft) 95,74 %
11.06.2021 07:06 17,2 C 16,7 C 15,6 C 93 % 1019,3 hPa 0,0 l/m 0 min 0 min 40 W/m 3,2 km/h (1 Bft) 95,74 %
11.06.2021 07:08 17,3 C 17,2 C 15,6 C 92 % 1019,3 hPa 0,0 l/m 0 min 0 min 41 W/m 3,2 km/h (1 Bft) 95,83 %
11.06.2021 07:10 17,3 C 17,2 C 15,6 C 93 % 1019,2 hPa 0,0 l/m 0 min 0 min 42 W/m 6,4 km/h (2 Bft) 97,87 %
11.06.2021 07:12 17,3 C 17,2 C 15,6 C 93 % 1019,2 hPa 0,0 l/m 0 min 0 min 42 W/m 3,2 km/h (1 Bft) 97,83 %
11.06.2021 07:14 17,3 C 17,2 C 15,6 C 92 % 1019,2 hPa 0,0 l/m 0 min 0 min 42 W/m 3,2 km/h (1 Bft) 97,87 %
11.06.2021 07:16 17,4 C 17,2 C 15,6 C 92 % 1019,2 hPa 0,0 l/m 0 min 0 min 42 W/m 0,0 km/h (0 Bft) 97,87 %
11.06.2021 07:18 17,4 C 17,2 C 15,6 C 92 % 1019,2 hPa 0,0 l/m 0 min 0 min 43 W/m 0,0 km/h (0 Bft) 100,00 %
11.06.2021 07:20 17,4 C 17,2 C 15,6 C 92 % 1019,2 hPa 0,0 l/m 0 min 0 min 44 W/m 3,2 km/h (1 Bft) 97,87 %
11.06.2021 07:22 17,5 C 17,2 C 15,6 C 92 % 1019,2 hPa 0,0 l/m 0 min 0 min 45 W/m 3,2 km/h (1 Bft) 100,00 %
11.06.2021 07:24 17,5 C 17,2 C 15,6 C 92 % 1019,3 hPa 0,0 l/m 0 min 0 min 47 W/m 3,2 km/h (1 Bft) 100,00 %
11.06.2021 07:26 17,5 C 17,2 C 15,6 C 92 % 1019,3 hPa 0,0 l/m 0 min 0 min 49 W/m 3,2 km/h (1 Bft) 97,87 %
11.06.2021 07:28 17,6 C 17,2 C 15,6 C 92 % 1019,4 hPa 0,0 l/m 0 min 0 min 50 W/m 0,0 km/h (0 Bft) 95,74 %
11.06.2021 07:30 17,6 C 17,8 C 15,6 C 92 % 1019,4 hPa 0,0 l/m 0 min 0 min 52 W/m 3,2 km/h (1 Bft) 97,87 %
11.06.2021 07:32 17,7 C 17,8 C 15,6 C 92 % 1019,4 hPa 0,0 l/m 0 min 0 min 53 W/m 3,2 km/h (1 Bft) 97,87 %
11.06.2021 07:34 17,8 C 17,8 C 16,1 C 92 % 1019,4 hPa 0,0 l/m 0 min 0 min 54 W/m 0,0 km/h (0 Bft) 97,87 %
11.06.2021 07:36 17,8 C 17,8 C 16,1 C 92 % 1019,5 hPa 0,0 l/m 0 min 0 min 55 W/m 6,4 km/h (2 Bft) 97,83 %
11.06.2021 07:38 17,8 C 17,8 C 16,1 C 91 % 1019,5 hPa 0,0 l/m 0 min 0 min 99 W/m 3,2 km/h (1 Bft) 97,87 %
11.06.2021 07:40 17,9 C 17,8 C 16,1 C 91 % 1019,5 hPa 0,0 l/m 2 min 0 min 214 W/m 0,0 km/h (0 Bft) 97,87 %
11.06.2021 07:42 17,9 C 17,8 C 16,1 C 92 % 1019,5 hPa 0,0 l/m 2 min 0 min 235 W/m 3,2 km/h (1 Bft) 97,87 %
11.06.2021 07:44 18,0 C 18,3 C 16,1 C 91 % 1019,5 hPa 0,0 l/m 2 min 0 min 244 W/m 3,2 km/h (1 Bft) 97,87 %
11.06.2021 07:46 18,0 C 18,3 C 16,1 C 91 % 1019,5 hPa 0,0 l/m 2 min 0 min 251 W/m 6,4 km/h (2 Bft) 95,74 %
11.06.2021 07:48 18,1 C 18,3 C 16,1 C 91 % 1019,5 hPa 0,0 l/m 2 min 0 min 254 W/m 6,4 km/h (2 Bft) 95,65 %
11.06.2021 07:50 18,2 C 18,3 C 16,1 C 91 % 1019,5 hPa 0,0 l/m 2 min 0 min 262 W/m 3,2 km/h (1 Bft) 100,00 %
11.06.2021 07:52 18,3 C 18,3 C 16,1 C 91 % 1019,5 hPa 0,0 l/m 2 min 0 min 247 W/m 3,2 km/h (1 Bft) 95,74 %
11.06.2021 07:54 18,4 C 18,3 C 16,1 C 91 % 1019,5 hPa 0,0 l/m 2 min 0 min 277 W/m 3,2 km/h (1 Bft) 95,74 %
11.06.2021 07:56 18,5 C 18,3 C 16,7 C 91 % 1019,5 hPa 0,0 l/m 2 min 0 min 285 W/m 6,4 km/h (2 Bft) 95,74 %
11.06.2021 07:58 18,5 C 18,9 C 16,7 C 90 % 1019,5 hPa 0,0 l/m 2 min 0 min 292 W/m 3,2 km/h (1 Bft) 95,74 %
11.06.2021 08:00 18,6 C 18,9 C 16,7 C 90 % 1019,5 hPa 0,0 l/m 2 min 0 min 299 W/m 3,2 km/h (1 Bft) 97,83 %
11.06.2021 08:02 18,7 C 18,9 C 16,1 C 90 % 1019,5 hPa 0,0 l/m 2 min 0 min 306 W/m 3,2 km/h (1 Bft) 95,74 %
11.06.2021 08:04 18,8 C 18,9 C 16,1 C 90 % 1019,5 hPa 0,0 l/m 2 min 0 min 313 W/m 3,2 km/h (1 Bft) 95,74 %
11.06.2021 08:06 18,9 C 19,4 C 16,1 C 89 % 1019,5 hPa 0,0 l/m 2 min 0 min 317 W/m 6,4 km/h (2 Bft) 95,74 %
11.06.2021 08:08 19,0 C 19,4 C 16,7 C 89 % 1019,4 hPa 0,0 l/m 2 min 0 min 320 W/m 9,7 km/h (2 Bft) 95,74 %
11.06.2021 08:10 19,0 C 20,0 C 16,7 C 89 % 1019,5 hPa 0,0 l/m 2 min 0 min 324 W/m 6,4 km/h (2 Bft) 93,62 %
11.06.2021 08:12 19,1 C 20,0 C 16,7 C 88 % 1019,5 hPa 0,0 l/m 2 min 0 min 336 W/m 6,4 km/h (2 Bft) 95,65 %
11.06.2021 08:14 19,3 C 20,6 C 16,7 C 88 % 1019,5 hPa 0,0 l/m 2 min 0 min 339 W/m 6,4 km/h (2 Bft) 95,74 %
11.06.2021 08:16 19,4 C 21,1 C 17,3 C 88 % 1019,6 hPa 0,0 l/m 2 min 0 min 343 W/m 6,4 km/h (2 Bft) 95,74 %
11.06.2021 08:18 19,5 C 20,6 C 17,3 C 88 % 1019,6 hPa 0,0 l/m 2 min 0 min 350 W/m 6,4 km/h (2 Bft) 93,62 %
11.06.2021 08:20 19,6 C 21,1 C 17,8 C 87 % 1019,6 hPa 0,0 l/m 2 min 0 min 354 W/m 6,4 km/h (2 Bft) 95,74 %
11.06.2021 08:22 19,8 C 21,1 C 17,8 C 87 % 1019,6 hPa 0,0 l/m 2 min 0 min 359 W/m 3,2 km/h (1 Bft) 95,74 %
11.06.2021 08:24 19,9 C 21,1 C 18,4 C 87 % 1019,7 hPa 0,0 l/m 2 min 0 min 362 W/m 12,9 km/h (3 Bft) 95,65 %
11.06.2021 08:26 20,0 C 21,7 C 18,4 C 86 % 1019,7 hPa 0,0 l/m 2 min 0 min 360 W/m 6,4 km/h (2 Bft) 93,62 %
11.06.2021 08:28 20,0 C 21,1 C 18,9 C 86 % 1019,8 hPa 0,0 l/m 2 min 0 min 369 W/m 6,4 km/h (2 Bft) 95,74 %
11.06.2021 08:30 20,1 C 21,1 C 18,9 C 86 % 1019,7 hPa 0,0 l/m 2 min 0 min 376 W/m 9,7 km/h (2 Bft) 97,87 %
11.06.2021 08:32 20,3 C 21,7 C 18,9 C 86 % 1019,8 hPa 0,0 l/m 2 min 0 min 381 W/m 6,4 km/h (2 Bft) 95,74 %
11.06.2021 08:34 20,4 C 22,2 C 19,5 C 86 % 1019,7 hPa 0,0 l/m 2 min 0 min 394 W/m 6,4 km/h (2 Bft) 97,83 %
11.06.2021 08:36 20,4 C 22,2 C 19,5 C 85 % 1019,7 hPa 0,0 l/m 2 min 0 min 377 W/m 6,4 km/h (2 Bft) 97,87 %
11.06.2021 08:38 20,5 C 22,2 C 19,5 C 85 % 1019,7 hPa 0,0 l/m 2 min 0 min 370 W/m 9,7 km/h (2 Bft) 95,74 %
11.06.2021 08:40 20,6 C 22,2 C 19,5 C 85 % 1019,7 hPa 0,0 l/m 2 min 0 min 368 W/m 6,4 km/h (2 Bft) 97,14 %
11.06.2021 08:42 20,6 C 22,2 C 19,5 C 85 % 1019,7 hPa 0,0 l/m 2 min 0 min 413 W/m 6,4 km/h (2 Bft) 98,00 %
11.06.2021 08:44 20,7 C 22,8 C 20,0 C 85 % 1019,7 hPa 0,0 l/m 2 min 0 min 419 W/m 9,7 km/h (2 Bft) 97,87 %
11.06.2021 08:46 20,9 C 23,3 C 20,6 C 84 % 1019,7 hPa 0,0 l/m 2 min 0 min 409 W/m 3,2 km/h (1 Bft) 100,00 %
11.06.2021 08:48 21,0 C 23,9 C 20,6 C 84 % 1019,7 hPa 0,0 l/m 2 min 0 min 438 W/m 9,7 km/h (2 Bft) 95,74 %
11.06.2021 08:50 21,1 C 23,3 C 20,6 C 83 % 1019,7 hPa 0,0 l/m 2 min 0 min 436 W/m 3,2 km/h (1 Bft) 98,11 %
11.06.2021 08:52 21,2 C 23,9 C 20,6 C 83 % 1019,8 hPa 0,0 l/m 2 min 0 min 448 W/m 9,7 km/h (2 Bft) 97,87 %
11.06.2021 08:54 21,3 C 23,9 C 20,6 C 83 % 1019,8 hPa 0,0 l/m 2 min 0 min 442 W/m 12,9 km/h (3 Bft) 97,87 %
11.06.2021 08:56 21,4 C 24,4 C 20,6 C 83 % 1019,8 hPa 0,0 l/m 2 min 0 min 454 W/m 6,4 km/h (2 Bft) 97,87 %
11.06.2021 08:58 21,5 C 24,4 C 21,1 C 82 % 1019,7 hPa 0,0 l/m 2 min 0 min 444 W/m 6,4 km/h (2 Bft) 95,74 %
11.06.2021 09:00 21,6 C 24,4 C 21,1 C 82 % 1019,7 hPa 0,0 l/m 2 min 0 min 450 W/m 3,2 km/h (1 Bft) 97,83 %
11.06.2021 09:02 21,6 C 24,4 C 21,1 C 81 % 1019,7 hPa 0,0 l/m 2 min 0 min 455 W/m 9,7 km/h (2 Bft) 97,87 %
11.06.2021 09:04 21,8 C 25,0 C 21,1 C 81 % 1019,7 hPa 0,0 l/m 2 min 0 min 475 W/m 6,4 km/h (2 Bft) 97,87 %
11.06.2021 09:06 21,8 C 25,0 C 21,1 C 81 % 1019,7 hPa 0,0 l/m 2 min 0 min 487 W/m 9,7 km/h (2 Bft) 95,74 %
11.06.2021 09:08 21,9 C 25,0 C 21,7 C 80 % 1019,7 hPa 0,0 l/m 2 min 0 min 496 W/m 9,7 km/h (2 Bft) 95,74 %
11.06.2021 09:10 21,9 C 24,4 C 21,1 C 80 % 1019,7 hPa 0,0 l/m 2 min 0 min 495 W/m 6,4 km/h (2 Bft) 93,62 %
11.06.2021 09:12 22,0 C 25,0 C 21,7 C 80 % 1019,6 hPa 0,0 l/m 2 min 0 min 498 W/m 9,7 km/h (2 Bft) 95,65 %
11.06.2021 09:14 22,0 C 26,1 C 21,7 C 80 % 1019,6 hPa 0,0 l/m 2 min 0 min 502 W/m 6,4 km/h (2 Bft) 95,74 %
11.06.2021 09:16 22,0 C 26,1 C 21,7 C 80 % 1019,6 hPa 0,0 l/m 2 min 0 min 507 W/m 6,4 km/h (2 Bft) 97,87 %
11.06.2021 09:18 22,1 C 25,6 C 21,7 C 79 % 1019,6 hPa 0,0 l/m 2 min 0 min 515 W/m 6,4 km/h (2 Bft) 97,87 %
11.06.2021 09:20 22,2 C 26,1 C 22,3 C 80 % 1019,6 hPa 0,0 l/m 2 min 0 min 518 W/m 9,7 km/h (2 Bft) 95,74 %
11.06.2021 09:22 22,3 C 26,7 C 22,3 C 79 % 1019,7 hPa 0,0 l/m 2 min 0 min 522 W/m 6,4 km/h (2 Bft) 97,87 %
11.06.2021 09:24 22,4 C 27,2 C 22,3 C 79 % 1019,7 hPa 0,0 l/m 2 min 0 min 524 W/m 6,4 km/h (2 Bft) 97,83 %
11.06.2021 09:26 22,5 C 27,8 C 22,8 C 79 % 1019,7 hPa 0,0 l/m 2 min 0 min 530 W/m 6,4 km/h (2 Bft) 100,00 %
11.06.2021 09:28 22,6 C 27,8 C 22,8 C 79 % 1019,7 hPa 0,0 l/m 2 min 0 min 525 W/m 9,7 km/h (2 Bft) 95,74 %
11.06.2021 09:30 22,6 C 27,8 C 23,4 C 78 % 1019,7 hPa 0,0 l/m 2 min 0 min 526 W/m 6,4 km/h (2 Bft) 97,87 %
11.06.2021 09:32 22,8 C 27,2 C 23,4 C 78 % 1019,7 hPa 0,0 l/m 2 min 0 min 541 W/m 16,1 km/h (3 Bft) 97,87 %
11.06.2021 09:34 22,8 C 27,2 C 23,4 C 77 % 1019,7 hPa 0,0 l/m 2 min 0 min 552 W/m 9,7 km/h (2 Bft) 97,83 %
11.06.2021 09:36 22,9 C 27,2 C 23,4 C 77 % 1019,7 hPa 0,0 l/m 2 min 0 min 550 W/m 9,7 km/h (2 Bft) 97,87 %
11.06.2021 09:38 22,9 C 27,2 C 23,9 C 77 % 1019,8 hPa 0,0 l/m 2 min 0 min 549 W/m 6,4 km/h (2 Bft) 97,87 %
11.06.2021 09:40 22,9 C 26,1 C 23,4 C 76 % 1019,8 hPa 0,0 l/m 2 min 0 min 551 W/m 12,9 km/h (3 Bft) 97,87 %
11.06.2021 09:42 22,9 C 26,7 C 23,9 C 77 % 1019,8 hPa 0,0 l/m 2 min 0 min 553 W/m 12,9 km/h (3 Bft) 97,87 %
11.06.2021 09:44 22,9 C 26,1 C 23,4 C 76 % 1019,8 hPa 0,0 l/m 2 min 0 min 574 W/m 12,9 km/h (3 Bft) 93,62 %
11.06.2021 09:46 22,9 C 25,6 C 23,4 C 75 % 1019,8 hPa 0,0 l/m 2 min 0 min 605 W/m 12,9 km/h (3 Bft) 95,65 %
11.06.2021 09:48 22,9 C 25,6 C 23,4 C 74 % 1019,9 hPa 0,0 l/m 2 min 0 min 596 W/m 12,9 km/h (3 Bft) 100,00 %
11.06.2021 09:50 22,9 C 25,0 C 23,4 C 74 % 1019,9 hPa 0,0 l/m 2 min 0 min 583 W/m 9,7 km/h (2 Bft) 100,00 %
11.06.2021 09:52 22,9 C 25,6 C 23,4 C 74 % 1020,0 hPa 0,0 l/m 2 min 0 min 606 W/m 12,9 km/h (3 Bft) 100,00 %
11.06.2021 09:54 23,0 C 26,1 C 23,9 C 75 % 1020,0 hPa 0,0 l/m 2 min 0 min 614 W/m 9,7 km/h (2 Bft) 100,00 %
11.06.2021 09:56 23,1 C 26,7 C 25,0 C 75 % 1020,1 hPa 0,0 l/m 2 min 0 min 633 W/m 12,9 km/h (3 Bft) 100,00 %
11.06.2021 09:58 23,1 C 25,6 C 24,5 C 75 % 1020,1 hPa 0,0 l/m 2 min 0 min 631 W/m 12,9 km/h (3 Bft) 100,00 %
11.06.2021 10:00 23,1 C 25,0 C 24,5 C 75 % 1020,0 hPa 0,0 l/m 2 min 0 min 637 W/m 9,7 km/h (2 Bft) 97,87 %
11.06.2021 10:02 23,1 C 25,0 C 24,5 C 75 % 1020,0 hPa 0,0 l/m 2 min 0 min 641 W/m 25,7 km/h (4 Bft) 100,00 %
11.06.2021 10:04 23,1 C 25,0 C 24,5 C 75 % 1020,0 hPa 0,0 l/m 2 min 0 min 622 W/m 16,1 km/h (3 Bft) 100,00 %
11.06.2021 10:06 23,1 C 25,0 C 24,5 C 74 % 1020,0 hPa 0,0 l/m 2 min 0 min 623 W/m 12,9 km/h (3 Bft) 100,00 %
11.06.2021 10:08 23,2 C 25,0 C 25,0 C 74 % 1020,1 hPa 0,0 l/m 2 min 0 min 642 W/m 9,7 km/h (2 Bft) 100,00 %
11.06.2021 10:10 23,2 C 25,0 C 25,0 C 74 % 1020,1 hPa 0,0 l/m 2 min 0 min 630 W/m 12,9 km/h (3 Bft) 100,00 %
11.06.2021 10:12 23,2 C 25,6 C 25,6 C 74 % 1020,1 hPa 0,0 l/m 2 min 0 min 651 W/m 6,4 km/h (2 Bft) 100,00 %
11.06.2021 10:14 23,3 C 26,1 C 25,6 C 74 % 1020,2 hPa 0,0 l/m 2 min 0 min 643 W/m 9,7 km/h (2 Bft) 100,00 %
11.06.2021 10:16 23,3 C 25,6 C 25,6 C 73 % 1020,1 hPa 0,0 l/m 2 min 0 min 626 W/m 16,1 km/h (3 Bft) 100,00 %
11.06.2021 10:18 23,3 C 26,1 C 25,6 C 73 % 1020,1 hPa 0,0 l/m 2 min 0 min 637 W/m 12,9 km/h (3 Bft) 100,00 %
11.06.2021 10:20 23,3 C 25,0 C 25,6 C 73 % 1020,1 hPa 0,0 l/m 2 min 0 min 656 W/m 12,9 km/h (3 Bft) 100,00 %
11.06.2021 10:22 23,3 C 25,6 C 26,1 C 73 % 1020,1 hPa 0,0 l/m 2 min 0 min 668 W/m 9,7 km/h (2 Bft) 100,00 %
11.06.2021 10:24 23,4 C 26,1 C 26,7 C 74 % 1020,2 hPa 0,0 l/m 2 min 0 min 678 W/m 9,7 km/h (2 Bft) 100,00 %
11.06.2021 10:26 23,5 C 26,1 C 27,3 C 73 % 1020,1 hPa 0,0 l/m 2 min 0 min 685 W/m 6,4 km/h (2 Bft) 97,87 %
11.06.2021 10:28 23,6 C 26,1 C 27,3 C 73 % 1020,1 hPa 0,0 l/m 2 min 0 min 700 W/m 9,7 km/h (2 Bft) 100,00 %
11.06.2021 10:30 23,6 C 26,1 C 27,3 C 73 % 1020,1 hPa 0,0 l/m 2 min 0 min 676 W/m 9,7 km/h (2 Bft) 100,00 %
11.06.2021 10:32 23,8 C 25,6 C 26,7 C 73 % 1020,1 hPa 0,0 l/m 2 min 0 min 670 W/m 12,9 km/h (3 Bft) 100,00 %
11.06.2021 10:34 23,8 C 25,6 C 27,3 C 72 % 1020,1 hPa 0,0 l/m 2 min 0 min 696 W/m 16,1 km/h (3 Bft) 100,00 %
11.06.2021 10:36 23,8 C 25,6 C 27,3 C 73 % 1020,1 hPa 0,0 l/m 2 min 0 min 723 W/m 6,4 km/h (2 Bft) 100,00 %
11.06.2021 10:38 23,9 C 25,6 C 27,3 C 72 % 1020,1 hPa 0,0 l/m 2 min 0 min 658 W/m 9,7 km/h (2 Bft) 97,87 %
11.06.2021 10:40 23,9 C 25,6 C 27,8 C 71 % 1020,1 hPa 0,0 l/m 2 min 0 min 665 W/m 22,5 km/h (4 Bft) 100,00 %
11.06.2021 10:42 24,0 C 25,6 C 27,8 C 71 % 1020,1 hPa 0,0 l/m 2 min 0 min 743 W/m 12,9 km/h (3 Bft) 97,87 %
11.06.2021 10:44 24,1 C 26,1 C 27,8 C 71 % 1020,1 hPa 0,0 l/m 2 min 0 min 750 W/m 19,3 km/h (3 Bft) 100,00 %
11.06.2021 10:46 24,1 C 26,1 C 28,4 C 71 % 1020,1 hPa 0,0 l/m 2 min 0 min 754 W/m 12,9 km/h (3 Bft) 100,00 %
11.06.2021 10:48 24,2 C 25,6 C 28,4 C 71 % 1020,1 hPa 0,0 l/m 2 min 0 min 744 W/m 12,9 km/h (3 Bft) 100,00 %
11.06.2021 10:50 24,2 C 25,6 C 27,3 C 70 % 1020,1 hPa 0,0 l/m 2 min 0 min 748 W/m 16,1 km/h (3 Bft) 95,74 %
11.06.2021 10:52 24,2 C 26,1 C 27,8 C 70 % 1020,1 hPa 0,0 l/m 2 min 0 min 742 W/m 12,9 km/h (3 Bft) 97,87 %
11.06.2021 10:54 24,2 C 25,6 C 27,8 C 70 % 1020,1 hPa 0,0 l/m 2 min 0 min 756 W/m 12,9 km/h (3 Bft) 97,87 %
11.06.2021 10:56 24,1 C 25,0 C 27,3 C 70 % 1020,1 hPa 0,0 l/m 2 min 0 min 757 W/m 9,7 km/h (2 Bft) 97,87 %
11.06.2021 10:58 24,1 C 25,6 C 27,8 C 71 % 1020,1 hPa 0,0 l/m 2 min 0 min 756 W/m 12,9 km/h (3 Bft) 97,83 %
11.06.2021 11:00 24,2 C 25,6 C 27,8 C 70 % 1020,1 hPa 0,0 l/m 2 min 0 min 752 W/m 19,3 km/h (3 Bft) 97,87 %
11.06.2021 11:02 24,2 C 25,6 C 27,3 C 70 % 1020,1 hPa 0,0 l/m 2 min 0 min 766 W/m 19,3 km/h (3 Bft) 97,87 %
11.06.2021 11:04 24,1 C 25,0 C 27,3 C 70 % 1020,2 hPa 0,0 l/m 2 min 0 min 779 W/m 19,3 km/h (3 Bft) 97,87 %
11.06.2021 11:06 24,1 C 25,6 C 27,8 C 71 % 1020,2 hPa 0,0 l/m 2 min 0 min 814 W/m 16,1 km/h (3 Bft) 97,87 %
11.06.2021 11:08 24,2 C 25,6 C 27,8 C 71 % 1020,1 hPa 0,0 l/m 2 min 0 min 854 W/m 16,1 km/h (3 Bft) 97,87 %
11.06.2021 11:10 24,3 C 26,1 C 28,4 C 71 % 1020,1 hPa 0,0 l/m 2 min 0 min 880 W/m 9,7 km/h (2 Bft) 97,83 %
11.06.2021 11:12 24,4 C 26,1 C 27,8 C 71 % 1020,1 hPa 0,0 l/m 2 min 0 min 891 W/m 16,1 km/h (3 Bft) 97,37 %
11.06.2021 11:14 24,4 C 25,0 C 25,6 C 70 % 1020,2 hPa 0,0 l/m 2 min 0 min 655 W/m 19,3 km/h (3 Bft) 97,87 %
11.06.2021 11:16 24,3 C 25,0 C 24,5 C 70 % 1020,1 hPa 0,0 l/m 0 min 0 min 345 W/m 12,9 km/h (3 Bft) 98,21 %
11.06.2021 11:18 24,3 C 25,6 C 23,9 C 70 % 1020,2 hPa 0,0 l/m 0 min 0 min 394 W/m 9,7 km/h (2 Bft) 97,87 %
11.06.2021 11:20 24,3 C 25,6 C 23,9 C 70 % 1020,2 hPa 0,0 l/m 2 min 0 min 456 W/m 16,1 km/h (3 Bft) 97,87 %
11.06.2021 11:22 24,3 C 25,0 C 23,4 C 70 % 1020,2 hPa 0,0 l/m 0 min 0 min 407 W/m 12,9 km/h (3 Bft) 97,83 %
11.06.2021 11:24 24,3 C 25,0 C 23,9 C 71 % 1020,2 hPa 0,0 l/m 2 min 0 min 462 W/m 12,9 km/h (3 Bft) 97,87 %
11.06.2021 11:26 24,3 C 25,6 C 25,0 C 71 % 1020,1 hPa 0,0 l/m 2 min 0 min 694 W/m 9,7 km/h (2 Bft) 97,87 %
11.06.2021 11:28 24,3 C 25,6 C 25,0 C 70 % 1020,1 hPa 0,0 l/m 2 min 0 min 904 W/m 16,1 km/h (3 Bft) 95,74 %
11.06.2021 11:30 24,4 C 25,6 C 23,9 C 70 % 1020,1 hPa 0,0 l/m 2 min 0 min 441 W/m 16,1 km/h (3 Bft) 97,87 %
11.06.2021 11:32 24,4 C 25,0 C 23,9 C 70 % 1020,1 hPa 0,0 l/m 0 min 0 min 397 W/m 16,1 km/h (3 Bft) 95,74 %
11.06.2021 11:34 24,4 C 25,6 C 23,4 C 70 % 1020,1 hPa 0,0 l/m 2 min 0 min 666 W/m 12,9 km/h (3 Bft) 97,83 %
11.06.2021 11:36 24,4 C 26,1 C 23,4 C 71 % 1020,1 hPa 0,0 l/m 2 min 0 min 850 W/m 16,1 km/h (3 Bft) 97,87 %
11.06.2021 11:38 24,5 C 26,7 C 23,9 C 71 % 1020,1 hPa 0,0 l/m 2 min 0 min 868 W/m 16,1 km/h (3 Bft) 93,62 %
11.06.2021 11:40 24,5 C 27,2 C 24,5 C 70 % 1020,1 hPa 0,0 l/m 2 min 0 min 881 W/m 12,9 km/h (3 Bft) 95,74 %
11.06.2021 11:42 24,7 C 27,8 C 26,1 C 70 % 1020,1 hPa 0,0 l/m 2 min 0 min 873 W/m 9,7 km/h (2 Bft) 93,62 %
11.06.2021 11:44 24,8 C 27,8 C 26,1 C 69 % 1020,1 hPa 0,0 l/m 2 min 0 min 872 W/m 9,7 km/h (2 Bft) 93,48 %
11.06.2021 11:46 24,9 C 27,8 C 27,8 C 69 % 1020,1 hPa 0,0 l/m 2 min 0 min 909 W/m 12,9 km/h (3 Bft) 95,74 %
11.06.2021 11:48 24,9 C 27,2 C 28,9 C 68 % 1020,0 hPa 0,0 l/m 2 min 0 min 948 W/m 12,9 km/h (3 Bft) 97,87 %
11.06.2021 11:50 24,9 C 27,8 C 28,9 C 69 % 1020,0 hPa 0,0 l/m 2 min 0 min 957 W/m 16,1 km/h (3 Bft) 97,87 %
11.06.2021 11:52 24,9 C 27,2 C 27,8 C 68 % 1020,0 hPa 0,0 l/m 2 min 0 min 947 W/m 6,4 km/h (2 Bft) 95,74 %
11.06.2021 11:54 24,8 C 26,1 C 26,1 C 69 % 1020,0 hPa 0,0 l/m 2 min 0 min 768 W/m 6,4 km/h (2 Bft) 95,74 %
11.06.2021 11:56 24,7 C 25,6 C 25,6 C 69 % 1020,0 hPa 0,0 l/m 0 min 0 min 399 W/m 3,2 km/h (1 Bft) 95,65 %
11.06.2021 11:58 24,6 C 26,1 C 25,6 C 69 % 1020,0 hPa 0,0 l/m 2 min 0 min 496 W/m 6,4 km/h (2 Bft) 95,74 %
11.06.2021 12:00 24,6 C 26,7 C 26,1 C 69 % 1020,0 hPa 0,0 l/m 2 min 0 min 943 W/m 12,9 km/h (3 Bft) 95,74 %
11.06.2021 12:02 24,6 C 26,1 C 25,6 C 69 % 1019,9 hPa 0,0 l/m 2 min 0 min 949 W/m 12,9 km/h (3 Bft) 91,49 %
11.06.2021 12:04 24,6 C 26,1 C 25,6 C 70 % 1019,9 hPa 0,0 l/m 2 min 0 min 552 W/m 12,9 km/h (3 Bft) 95,74 %
11.06.2021 12:08 24,6 C 26,1 C 27,8 C 69 % 1020,0 hPa 0,0 l/m 4 min 0 min 886 W/m 12,9 km/h (3 Bft) 95,74 %
11.06.2021 12:10 24,6 C 26,1 C 27,3 C 69 % 1020,0 hPa 0,0 l/m 2 min 0 min 800 W/m 9,7 km/h (2 Bft) 95,74 %
11.06.2021 12:12 24,6 C 26,1 C 26,1 C 69 % 1020,0 hPa 0,0 l/m 0 min 0 min 357 W/m 6,4 km/h (2 Bft) 95,74 %
11.06.2021 12:14 24,6 C 26,7 C 27,8 C 69 % 1019,9 hPa 0,0 l/m 0 min 0 min 361 W/m 6,4 km/h (2 Bft) 95,74 %
11.06.2021 12:16 24,6 C 25,6 C 26,1 C 69 % 1019,9 hPa 0,0 l/m 0 min 0 min 372 W/m 16,1 km/h (3 Bft) 95,74 %
11.06.2021 12:18 24,4 C 25,0 C 24,5 C 69 % 1019,9 hPa 0,0 l/m 0 min 0 min 268 W/m 12,9 km/h (3 Bft) 91,49 %
11.06.2021 12:20 24,3 C 24,4 C 23,4 C 70 % 1019,9 hPa 0,0 l/m 0 min 0 min 230 W/m 9,7 km/h (2 Bft) 95,65 %
11.06.2021 12:22 24,1 C 24,4 C 24,5 C 70 % 1019,9 hPa 0,0 l/m 0 min 0 min 264 W/m 9,7 km/h (2 Bft) 95,74 %
11.06.2021 12:24 24,1 C 25,0 C 26,1 C 71 % 1019,9 hPa 0,0 l/m 0 min 0 min 274 W/m 6,4 km/h (2 Bft) 97,87 %
11.06.2021 12:26 24,3 C 26,1 C 28,9 C 71 % 1019,8 hPa 0,0 l/m 2 min 0 min 965 W/m 6,4 km/h (2 Bft) 97,87 %
11.06.2021 12:28 24,4 C 26,7 C 31,1 C 70 % 1019,8 hPa 0,0 l/m 2 min 0 min 1053 W/m 16,1 km/h (3 Bft) 97,87 %
11.06.2021 12:30 24,5 C 27,2 C 32,3 C 70 % 1019,9 hPa 0,0 l/m 2 min 0 min 1064 W/m 16,1 km/h (3 Bft) 95,74 %
11.06.2021 12:32 24,7 C 26,7 C 30,0 C 71 % 1019,8 hPa 0,0 l/m 2 min 0 min 567 W/m 12,9 km/h (3 Bft) 97,83 %
11.06.2021 12:34 24,8 C 26,1 C 27,3 C 69 % 1019,8 hPa 0,0 l/m 0 min 0 min 356 W/m 9,7 km/h (2 Bft) 95,74 %
11.06.2021 12:36 24,6 C 25,0 C 25,6 C 69 % 1019,8 hPa 0,0 l/m 0 min 0 min 238 W/m 9,7 km/h (2 Bft) 97,87 %
11.06.2021 12:38 24,5 C 25,0 C 24,5 C 69 % 1019,8 hPa 0,0 l/m 0 min 0 min 232 W/m 12,9 km/h (3 Bft) 97,87 %
11.06.2021 12:40 24,4 C 24,4 C 23,9 C 69 % 1019,7 hPa 0,0 l/m 0 min 0 min 207 W/m 12,9 km/h (3 Bft) 97,87 %
11.06.2021 12:42 24,3 C 24,4 C 22,8 C 70 % 1019,7 hPa 0,0 l/m 0 min 0 min 187 W/m 6,4 km/h (2 Bft) 95,74 %
11.06.2021 12:44 24,2 C 23,9 C 22,8 C 70 % 1019,8 hPa 0,0 l/m 0 min 0 min 183 W/m 12,9 km/h (3 Bft) 97,83 %
11.06.2021 12:46 24,2 C 24,4 C 25,6 C 70 % 1019,8 hPa 0,0 l/m 0 min 0 min 393 W/m 6,4 km/h (2 Bft) 97,87 %
11.06.2021 12:48 24,3 C 25,0 C 28,4 C 71 % 1019,8 hPa 0,0 l/m 2 min 0 min 976 W/m 12,9 km/h (3 Bft) 100,00 %
11.06.2021 12:50 24,5 C 26,1 C 30,6 C 69 % 1019,7 hPa 0,0 l/m 2 min 0 min 969 W/m 6,4 km/h (2 Bft) 100,00 %
11.06.2021 12:52 24,6 C 27,2 C 32,3 C 69 % 1019,7 hPa 0,0 l/m 2 min 0 min 953 W/m 12,9 km/h (3 Bft) 100,00 %
11.06.2021 12:54 24,9 C 27,2 C 33,4 C 69 % 1019,7 hPa 0,0 l/m 2 min 0 min 1008 W/m 12,9 km/h (3 Bft) 100,00 %
11.06.2021 12:56 25,1 C 27,2 C 33,4 C 69 % 1019,7 hPa 0,0 l/m 2 min 0 min 1037 W/m 12,9 km/h (3 Bft) 100,00 %
11.06.2021 12:58 25,4 C 26,7 C 31,1 C 66 % 1019,7 hPa 0,0 l/m 2 min 0 min 1062 W/m 12,9 km/h (3 Bft) 100,00 %
11.06.2021 13:00 25,4 C 26,1 C 28,9 C 66 % 1019,7 hPa 0,0 l/m 0 min 0 min 376 W/m 19,3 km/h (3 Bft) 100,00 %
11.06.2021 13:02 25,4 C 26,7 C 31,1 C 66 % 1019,7 hPa 0,0 l/m 2 min 0 min 676 W/m 6,4 km/h (2 Bft) 100,00 %
11.06.2021 13:04 25,5 C 27,2 C 32,8 C 66 % 1019,6 hPa 0,0 l/m 2 min 0 min 992 W/m 6,4 km/h (2 Bft) 100,00 %
11.06.2021 13:06 25,6 C 27,2 C 33,9 C 65 % 1019,6 hPa 0,0 l/m 2 min 0 min 1027 W/m 9,7 km/h (2 Bft) 100,00 %
11.06.2021 13:08 25,6 C 27,8 C 35,0 C 65 % 1019,6 hPa 0,0 l/m 2 min 0 min 1051 W/m 16,1 km/h (3 Bft) 100,00 %
11.06.2021 13:10 25,8 C 27,8 C 34,5 C 64 % 1019,5 hPa 0,0 l/m 2 min 0 min 1047 W/m 16,1 km/h (3 Bft) 97,87 %
11.06.2021 13:12 26,1 C 27,8 C 35,0 C 64 % 1019,6 hPa 0,0 l/m 2 min 0 min 1034 W/m 19,3 km/h (3 Bft) 100,00 %
11.06.2021 13:14 26,4 C 27,8 C 34,5 C 64 % 1019,5 hPa 0,0 l/m 2 min 0 min 1043 W/m 12,9 km/h (3 Bft) 100,00 %
11.06.2021 13:16 26,5 C 28,3 C 35,0 C 64 % 1019,6 hPa 0,0 l/m 2 min 0 min 1043 W/m 9,7 km/h (2 Bft) 97,87 %
11.06.2021 13:18 26,8 C 28,3 C 35,0 C 63 % 1019,6 hPa 0,0 l/m 2 min 0 min 1000 W/m 12,9 km/h (3 Bft) 100,00 %
11.06.2021 13:20 26,9 C 28,3 C 35,0 C 61 % 1019,6 hPa 0,0 l/m 2 min 0 min 1022 W/m 12,9 km/h (3 Bft) 100,00 %
11.06.2021 13:22 27,0 C 28,9 C 36,1 C 60 % 1019,5 hPa 0,0 l/m 2 min 0 min 1043 W/m 9,7 km/h (2 Bft) 97,87 %
11.06.2021 13:24 27,2 C 29,4 C 36,7 C 61 % 1019,5 hPa 0,0 l/m 2 min 0 min 1065 W/m 9,7 km/h (2 Bft) 100,00 %
11.06.2021 13:26 27,3 C 29,4 C 36,7 C 59 % 1019,5 hPa 0,0 l/m 2 min 0 min 1030 W/m 12,9 km/h (3 Bft) 97,87 %
11.06.2021 13:28 27,4 C 29,4 C 36,7 C 60 % 1019,5 hPa 0,0 l/m 2 min 0 min 1019 W/m 12,9 km/h (3 Bft) 100,00 %
11.06.2021 13:30 27,5 C 30,0 C 36,7 C 60 % 1019,5 hPa 0,0 l/m 2 min 0 min 1004 W/m 16,1 km/h (3 Bft) 100,00 %
11.06.2021 13:32 27,6 C 29,4 C 35,0 C 58 % 1019,5 hPa 0,0 l/m 2 min 0 min 848 W/m 12,9 km/h (3 Bft) 100,00 %
11.06.2021 13:34 27,6 C 28,9 C 33,9 C 59 % 1019,5 hPa 0,0 l/m 0 min 0 min 362 W/m 16,1 km/h (3 Bft) 100,00 %
11.06.2021 13:36 27,6 C 28,9 C 33,9 C 59 % 1019,5 hPa 0,0 l/m 2 min 0 min 966 W/m 12,9 km/h (3 Bft) 100,00 %
11.06.2021 13:38 27,5 C 28,9 C 33,9 C 60 % 1019,5 hPa 0,0 l/m 2 min 0 min 950 W/m 16,1 km/h (3 Bft) 100,00 %
11.06.2021 13:40 27,6 C 29,4 C 34,5 C 60 % 1019,4 hPa 0,0 l/m 2 min 0 min 981 W/m 12,9 km/h (3 Bft) 97,87 %
11.06.2021 13:42 27,7 C 29,4 C 35,0 C 60 % 1019,5 hPa 0,0 l/m 2 min 0 min 1009 W/m 9,7 km/h (2 Bft) 100,00 %
11.06.2021 13:44 27,8 C 30,0 C 36,1 C 59 % 1019,5 hPa 0,0 l/m 2 min 0 min 1045 W/m 12,9 km/h (3 Bft) 100,00 %
11.06.2021 13:46 27,8 C 29,4 C 35,0 C 59 % 1019,5 hPa 0,0 l/m 2 min 0 min 1048 W/m 16,1 km/h (3 Bft) 100,00 %
11.06.2021 13:48 27,7 C 28,9 C 32,3 C 58 % 1019,5 hPa 0,0 l/m 2 min 0 min 682 W/m 12,9 km/h (3 Bft) 100,00 %
11.06.2021 13:50 27,5 C 27,8 C 30,0 C 58 % 1019,4 hPa 0,0 l/m 0 min 0 min 249 W/m 12,9 km/h (3 Bft) 100,00 %
11.06.2021 13:52 27,4 C 27,8 C 28,4 C 59 % 1019,5 hPa 0,0 l/m 0 min 0 min 236 W/m 6,4 km/h (2 Bft) 100,00 %
11.06.2021 13:54 27,2 C 27,2 C 27,3 C 59 % 1019,4 hPa 0,0 l/m 0 min 0 min 272 W/m 9,7 km/h (2 Bft) 100,00 %
11.06.2021 13:56 27,0 C 27,2 C 27,3 C 60 % 1019,4 hPa 0,0 l/m 0 min 0 min 272 W/m 6,4 km/h (2 Bft) 100,00 %
11.06.2021 13:58 27,0 C 27,8 C 27,3 C 60 % 1019,4 hPa 0,0 l/m 0 min 0 min 266 W/m 9,7 km/h (2 Bft) 100,00 %
11.06.2021 14:00 26,9 C 27,8 C 26,7 C 60 % 1019,4 hPa 0,0 l/m 0 min 0 min 241 W/m 9,7 km/h (2 Bft) 100,00 %
11.06.2021 14:02 26,9 C 27,2 C 26,1 C 59 % 1019,4 hPa 0,0 l/m 0 min 0 min 237 W/m 6,4 km/h (2 Bft) 100,00 %
11.06.2021 14:04 26,8 C 27,2 C 25,6 C 60 % 1019,3 hPa 0,0 l/m 0 min 0 min 287 W/m 9,7 km/h (2 Bft) 100,00 %
11.06.2021 14:06 26,8 C 27,2 C 25,6 C 60 % 1019,4 hPa 0,0 l/m 0 min 0 min 283 W/m 16,1 km/h (3 Bft) 100,00 %
11.06.2021 14:08 26,7 C 27,2 C 25,6 C 60 % 1019,4 hPa 0,0 l/m 0 min 0 min 293 W/m 6,4 km/h (2 Bft) 97,83 %
11.06.2021 14:10 26,6 C 26,7 C 25,0 C 60 % 1019,4 hPa 0,0 l/m 0 min 0 min 273 W/m 6,4 km/h (2 Bft) 95,74 %
11.06.2021 14:12 26,6 C 27,2 C 25,0 C 60 % 1019,4 hPa 0,0 l/m 0 min 0 min 239 W/m 12,9 km/h (3 Bft) 97,87 %
11.06.2021 14:14 26,5 C 27,2 C 25,0 C 60 % 1019,3 hPa 0,0 l/m 2 min 0 min 681 W/m 12,9 km/h (3 Bft) 97,87 %
11.06.2021 14:16 26,5 C 27,2 C 24,5 C 60 % 1019,4 hPa 0,0 l/m 0 min 0 min 394 W/m 9,7 km/h (2 Bft) 97,87 %
11.06.2021 14:18 26,4 C 27,2 C 24,5 C 60 % 1019,3 hPa 0,0 l/m 0 min 0 min 329 W/m 9,7 km/h (2 Bft) 95,74 %
11.06.2021 14:20 26,5 C 28,3 C 25,0 C 61 % 1019,3 hPa 0,0 l/m 2 min 0 min 865 W/m 6,4 km/h (2 Bft) 95,65 %
11.06.2021 14:22 26,6 C 28,3 C 25,0 C 60 % 1019,4 hPa 0,0 l/m 2 min 0 min 1069 W/m 9,7 km/h (2 Bft) 93,62 %
11.06.2021 14:24 26,5 C 27,8 C 24,5 C 60 % 1019,2 hPa 0,0 l/m 0 min 0 min 328 W/m 6,4 km/h (2 Bft) 93,62 %
11.06.2021 14:26 26,6 C 27,2 C 24,5 C 61 % 1019,3 hPa 0,0 l/m 0 min 0 min 317 W/m 16,1 km/h (3 Bft) 89,36 %
11.06.2021 14:28 26,7 C 27,8 C 24,5 C 61 % 1019,3 hPa 0,0 l/m 2 min 0 min 655 W/m 12,9 km/h (3 Bft) 95,74 %
11.06.2021 14:30 26,8 C 27,8 C 24,5 C 60 % 1019,3 hPa 0,0 l/m 2 min 0 min 1055 W/m 12,9 km/h (3 Bft) 95,74 %
11.06.2021 14:32 26,7 C 27,2 C 24,5 C 61 % 1019,3 hPa 0,0 l/m 2 min 0 min 1055 W/m 22,5 km/h (4 Bft) 95,65 %
11.06.2021 14:34 26,6 C 27,2 C 24,5 C 60 % 1019,2 hPa 0,0 l/m 0 min 0 min 350 W/m 9,7 km/h (2 Bft) 95,74 %
11.06.2021 14:36 26,6 C 27,2 C 24,5 C 60 % 1019,2 hPa 0,0 l/m 0 min 0 min 276 W/m 9,7 km/h (2 Bft) 95,74 %
11.06.2021 14:38 26,6 C 27,2 C 24,5 C 60 % 1019,2 hPa 0,0 l/m 0 min 0 min 443 W/m 12,9 km/h (3 Bft) 95,74 %
11.06.2021 14:40 26,6 C 28,3 C 24,5 C 61 % 1019,2 hPa 0,0 l/m 2 min 0 min 696 W/m 12,9 km/h (3 Bft) 93,62 %
11.06.2021 14:42 26,7 C 28,9 C 24,5 C 59 % 1019,1 hPa 0,0 l/m 2 min 0 min 954 W/m 9,7 km/h (2 Bft) 91,49 %
11.06.2021 14:44 26,9 C 29,4 C 24,5 C 60 % 1019,1 hPa 0,0 l/m 2 min 0 min 956 W/m 9,7 km/h (2 Bft) 95,65 %
11.06.2021 14:46 27,0 C 29,4 C 24,5 C 59 % 1019,1 hPa 0,0 l/m 2 min 0 min 959 W/m 19,3 km/h (3 Bft) 95,74 %
11.06.2021 14:48 27,0 C 29,4 C 24,5 C 58 % 1019,1 hPa 0,0 l/m 2 min 0 min 1002 W/m 12,9 km/h (3 Bft) 95,74 %
11.06.2021 14:50 27,2 C 30,0 C 25,0 C 59 % 1019,1 hPa 0,0 l/m 2 min 0 min 998 W/m 6,4 km/h (2 Bft) 95,74 %
11.06.2021 14:52 27,3 C 29,4 C 25,0 C 58 % 1019,1 hPa 0,0 l/m 2 min 0 min 982 W/m 12,9 km/h (3 Bft) 95,74 %
11.06.2021 14:54 27,4 C 29,4 C 25,0 C 57 % 1019,0 hPa 0,0 l/m 2 min 0 min 932 W/m 12,9 km/h (3 Bft) 95,74 %
11.06.2021 14:56 27,4 C 28,9 C 24,5 C 57 % 1019,0 hPa 0,0 l/m 2 min 0 min 932 W/m 9,7 km/h (2 Bft) 95,65 %
11.06.2021 14:58 27,4 C 28,9 C 25,0 C 58 % 1019,0 hPa 0,0 l/m 2 min 0 min 932 W/m 6,4 km/h (2 Bft) 91,49 %
11.06.2021 15:00 27,5 C 28,9 C 24,5 C 58 % 1019,0 hPa 0,0 l/m 2 min 0 min 944 W/m 9,7 km/h (2 Bft) 93,62 %
11.06.2021 15:02 27,5 C 28,9 C 25,0 C 56 % 1018,9 hPa 0,0 l/m 2 min 0 min 1013 W/m 25,7 km/h (4 Bft) 95,74 %
11.06.2021 15:04 27,5 C 28,9 C 25,0 C 56 % 1018,9 hPa 0,0 l/m 2 min 0 min 1011 W/m 25,7 km/h (4 Bft) 95,74 %
11.06.2021 15:06 27,6 C 30,0 C 25,0 C 57 % 1018,9 hPa 0,0 l/m 2 min 0 min 1016 W/m 12,9 km/h (3 Bft) 97,87 %
11.06.2021 15:08 27,7 C 28,9 C 25,6 C 57 % 1018,9 hPa 0,0 l/m 2 min 0 min 470 W/m 12,9 km/h (3 Bft) 95,74 %
11.06.2021 15:10 27,7 C 28,3 C 25,6 C 56 % 1018,9 hPa 0,0 l/m 0 min 0 min 278 W/m 12,9 km/h (3 Bft) 97,87 %
11.06.2021 15:12 27,6 C 27,8 C 25,6 C 56 % 1018,9 hPa 0,0 l/m 0 min 0 min 263 W/m 9,7 km/h (2 Bft) 97,87 %
11.06.2021 15:14 27,6 C 28,3 C 25,0 C 57 % 1018,9 hPa 0,0 l/m 2 min 0 min 546 W/m 6,4 km/h (2 Bft) 97,87 %
11.06.2021 15:16 27,7 C 28,9 C 25,0 C 56 % 1018,8 hPa 0,0 l/m 2 min 0 min 972 W/m 6,4 km/h (2 Bft) 95,74 %
11.06.2021 15:18 27,8 C 29,4 C 25,6 C 58 % 1018,8 hPa 0,0 l/m 2 min 0 min 972 W/m 6,4 km/h (2 Bft) 97,87 %
11.06.2021 15:20 27,9 C 29,4 C 25,6 C 57 % 1018,8 hPa 0,0 l/m 2 min 0 min 739 W/m 9,7 km/h (2 Bft) 97,83 %
11.06.2021 15:22 27,9 C 28,9 C 25,0 C 57 % 1018,9 hPa 0,0 l/m 0 min 0 min 269 W/m 6,4 km/h (2 Bft) 97,87 %
11.06.2021 15:24 27,8 C 28,9 C 25,0 C 57 % 1018,8 hPa 0,0 l/m 0 min 0 min 281 W/m 12,9 km/h (3 Bft) 97,87 %
11.06.2021 15:26 27,9 C 29,4 C 25,0 C 57 % 1018,8 hPa 0,0 l/m 2 min 0 min 799 W/m 12,9 km/h (3 Bft) 95,74 %
11.06.2021 15:28 27,9 C 29,4 C 25,0 C 56 % 1018,8 hPa 0,0 l/m 2 min 0 min 904 W/m 9,7 km/h (2 Bft) 97,87 %
11.06.2021 15:30 27,9 C 29,4 C 25,0 C 56 % 1018,8 hPa 0,0 l/m 2 min 0 min 949 W/m 9,7 km/h (2 Bft) 97,87 %
11.06.2021 15:32 28,0 C 28,9 C 25,0 C 56 % 1018,8 hPa 0,0 l/m 2 min 0 min 969 W/m 9,7 km/h (2 Bft) 97,87 %
11.06.2021 15:34 27,9 C 28,3 C 25,0 C 56 % 1018,8 hPa 0,0 l/m 0 min 0 min 274 W/m 12,9 km/h (3 Bft) 95,74 %
11.06.2021 15:36 27,8 C 28,3 C 24,5 C 56 % 1018,8 hPa 0,0 l/m 0 min 0 min 278 W/m 6,4 km/h (2 Bft) 97,87 %
11.06.2021 15:38 27,8 C 28,9 C 25,0 C 56 % 1018,8 hPa 0,0 l/m 2 min 0 min 578 W/m 9,7 km/h (2 Bft) 98,00 %
11.06.2021 15:40 27,8 C 29,4 C 25,0 C 56 % 1018,7 hPa 0,0 l/m 2 min 0 min 943 W/m 12,9 km/h (3 Bft) 97,87 %
11.06.2021 15:42 27,8 C 30,0 C 25,0 C 57 % 1018,7 hPa 0,0 l/m 2 min 0 min 929 W/m 19,3 km/h (3 Bft) 95,65 %
11.06.2021 15:44 27,8 C 29,4 C 25,6 C 57 % 1018,7 hPa 0,0 l/m 2 min 0 min 956 W/m 12,9 km/h (3 Bft) 97,87 %
11.06.2021 15:46 27,9 C 28,3 C 25,0 C 56 % 1018,8 hPa 0,0 l/m 0 min 0 min 235 W/m 9,7 km/h (2 Bft) 100,00 %
11.06.2021 15:48 27,8 C 28,3 C 24,5 C 56 % 1018,8 hPa 0,0 l/m 0 min 0 min 287 W/m 9,7 km/h (2 Bft) 100,00 %
11.06.2021 15:50 27,8 C 28,9 C 24,5 C 56 % 1018,7 hPa 0,0 l/m 2 min 0 min 584 W/m 6,4 km/h (2 Bft) 97,87 %
11.06.2021 15:52 27,8 C 29,4 C 25,0 C 56 % 1018,7 hPa 0,0 l/m 2 min 0 min 889 W/m 12,9 km/h (3 Bft) 100,00 %
11.06.2021 15:54 27,9 C 30,6 C 25,0 C 56 % 1018,7 hPa 0,0 l/m 2 min 0 min 861 W/m 12,9 km/h (3 Bft) 100,00 %
11.06.2021 15:56 27,9 C 31,1 C 25,0 C 56 % 1018,7 hPa 0,0 l/m 2 min 0 min 852 W/m 9,7 km/h (2 Bft) 100,00 %
11.06.2021 15:58 28,0 C 31,1 C 25,6 C 57 % 1018,7 hPa 0,0 l/m 2 min 0 min 838 W/m 6,4 km/h (2 Bft) 100,00 %
11.06.2021 16:00 28,1 C 30,6 C 25,0 C 56 % 1018,7 hPa 0,0 l/m 2 min 0 min 838 W/m 12,9 km/h (3 Bft) 100,00 %
11.06.2021 16:02 28,2 C 31,7 C 25,0 C 56 % 1018,7 hPa 0,0 l/m 2 min 0 min 865 W/m 19,3 km/h (3 Bft) 97,87 %
11.06.2021 16:04 28,3 C 31,1 C 25,6 C 56 % 1018,7 hPa 0,0 l/m 2 min 0 min 894 W/m 12,9 km/h (3 Bft) 100,00 %
11.06.2021 16:06 28,4 C 31,7 C 25,6 C 55 % 1018,6 hPa 0,0 l/m 2 min 0 min 890 W/m 9,7 km/h (2 Bft) 97,83 %
11.06.2021 16:08 28,4 C 31,1 C 25,6 C 55 % 1018,6 hPa 0,0 l/m 2 min 0 min 899 W/m 16,1 km/h (3 Bft) 100,00 %
11.06.2021 16:10 28,5 C 30,6 C 25,6 C 55 % 1018,7 hPa 0,0 l/m 2 min 0 min 765 W/m 9,7 km/h (2 Bft) 100,00 %
11.06.2021 16:12 28,4 C 29,4 C 25,0 C 54 % 1018,6 hPa 0,0 l/m 0 min 0 min 211 W/m 12,9 km/h (3 Bft) 100,00 %
11.06.2021 16:14 28,3 C 28,9 C 25,0 C 55 % 1018,6 hPa 0,0 l/m 0 min 0 min 239 W/m 9,7 km/h (2 Bft) 100,00 %
11.06.2021 16:16 28,2 C 28,9 C 25,0 C 55 % 1018,6 hPa 0,0 l/m 0 min 0 min 273 W/m 6,4 km/h (2 Bft) 100,00 %
11.06.2021 16:18 28,2 C 30,0 C 25,0 C 55 % 1018,6 hPa 0,0 l/m 2 min 0 min 439 W/m 12,9 km/h (3 Bft) 100,00 %
11.06.2021 16:20 28,3 C 31,1 C 25,0 C 55 % 1018,5 hPa 0,0 l/m 2 min 0 min 780 W/m 16,1 km/h (3 Bft) 100,00 %
11.06.2021 16:22 28,2 C 30,0 C 25,0 C 55 % 1018,5 hPa 0,0 l/m 2 min 0 min 619 W/m 16,1 km/h (3 Bft) 97,87 %
11.06.2021 16:24 28,1 C 29,4 C 25,0 C 55 % 1018,6 hPa 0,0 l/m 0 min 0 min 266 W/m 12,9 km/h (3 Bft) 100,00 %
11.06.2021 16:26 28,0 C 27,8 C 24,5 C 55 % 1018,6 hPa 0,0 l/m 0 min 0 min 230 W/m 9,7 km/h (2 Bft) 100,00 %
11.06.2021 16:28 27,9 C 27,8 C 24,5 C 55 % 1018,6 hPa 0,0 l/m 0 min 0 min 190 W/m 6,4 km/h (2 Bft) 97,83 %
11.06.2021 16:30 27,8 C 27,8 C 24,5 C 56 % 1018,5 hPa 0,0 l/m 0 min 0 min 227 W/m 9,7 km/h (2 Bft) 100,00 %
11.06.2021 16:32 27,8 C 27,8 C 24,5 C 57 % 1018,6 hPa 0,0 l/m 0 min 0 min 247 W/m 6,4 km/h (2 Bft) 100,00 %
11.06.2021 16:34 27,8 C 29,4 C 24,5 C 57 % 1018,5 hPa 0,0 l/m 2 min 0 min 419 W/m 9,7 km/h (2 Bft) 100,00 %
11.06.2021 16:36 27,8 C 30,6 C 25,0 C 57 % 1018,6 hPa 0,0 l/m 2 min 0 min 874 W/m 12,9 km/h (3 Bft) 100,00 %
11.06.2021 16:38 27,9 C 29,4 C 25,0 C 56 % 1018,5 hPa 0,0 l/m 2 min 0 min 549 W/m 16,1 km/h (3 Bft) 100,00 %
11.06.2021 16:40 27,9 C 29,4 C 25,0 C 57 % 1018,5 hPa 0,0 l/m 0 min 0 min 308 W/m 9,7 km/h (2 Bft) 100,00 %
11.06.2021 16:42 27,9 C 29,4 C 25,0 C 56 % 1018,5 hPa 0,0 l/m 0 min 0 min 315 W/m 9,7 km/h (2 Bft) 100,00 %
11.06.2021 16:44 27,9 C 28,9 C 25,0 C 56 % 1018,5 hPa 0,0 l/m 0 min 0 min 332 W/m 9,7 km/h (2 Bft) 100,00 %
11.06.2021 16:46 27,8 C 28,3 C 24,5 C 56 % 1018,5 hPa 0,0 l/m 0 min 0 min 329 W/m 19,3 km/h (3 Bft) 100,00 %
11.06.2021 16:48 27,8 C 28,3 C 24,5 C 56 % 1018,6 hPa 0,0 l/m 0 min 0 min 335 W/m 9,7 km/h (2 Bft) 100,00 %
11.06.2021 16:50 27,8 C 28,9 C 25,0 C 56 % 1018,6 hPa 0,0 l/m 0 min 0 min 334 W/m 9,7 km/h (2 Bft) 95,74 %
11.06.2021 16:52 27,8 C 28,9 C 25,0 C 56 % 1018,5 hPa 0,0 l/m 0 min 0 min 292 W/m 9,7 km/h (2 Bft) 95,65 %
11.06.2021 16:54 27,8 C 30,0 C 25,0 C 56 % 1018,5 hPa 0,0 l/m 0 min 0 min 292 W/m 16,1 km/h (3 Bft) 97,87 %
11.06.2021 16:56 27,8 C 31,7 C 25,6 C 57 % 1018,4 hPa 0,0 l/m 2 min 0 min 357 W/m 12,9 km/h (3 Bft) 97,87 %
11.06.2021 16:58 27,9 C 31,1 C 25,6 C 56 % 1018,5 hPa 0,0 l/m 2 min 0 min 800 W/m 22,5 km/h (4 Bft) 95,74 %
11.06.2021 17:00 27,9 C 31,7 C 25,6 C 56 % 1018,4 hPa 0,0 l/m 2 min 0 min 782 W/m 9,7 km/h (2 Bft) 97,87 %
11.06.2021 17:02 28,0 C 32,2 C 25,6 C 56 % 1018,4 hPa 0,0 l/m 2 min 0 min 761 W/m 12,9 km/h (3 Bft) 97,87 %
11.06.2021 17:04 28,0 C 30,0 C 25,0 C 56 % 1018,4 hPa 0,0 l/m 2 min 0 min 361 W/m 12,9 km/h (3 Bft) 97,87 %
11.06.2021 17:06 28,0 C 29,4 C 25,0 C 56 % 1018,4 hPa 0,0 l/m 0 min 0 min 179 W/m 16,1 km/h (3 Bft) 97,83 %
11.06.2021 17:08 27,9 C 28,9 C 25,0 C 55 % 1018,4 hPa 0,0 l/m 0 min 0 min 177 W/m 16,1 km/h (3 Bft) 97,87 %
11.06.2021 17:10 27,8 C 27,8 C 24,5 C 55 % 1018,4 hPa 0,0 l/m 0 min 0 min 166 W/m 12,9 km/h (3 Bft) 97,87 %
11.06.2021 17:12 27,7 C 28,3 C 24,5 C 56 % 1018,3 hPa 0,0 l/m 0 min 0 min 179 W/m 12,9 km/h (3 Bft) 97,87 %
11.06.2021 17:14 27,6 C 27,8 C 24,5 C 56 % 1018,3 hPa 0,0 l/m 2 min 0 min 566 W/m 16,1 km/h (3 Bft) 95,74 %
11.06.2021 17:16 27,6 C 28,3 C 24,5 C 56 % 1018,4 hPa 0,0 l/m 0 min 0 min 214 W/m 9,7 km/h (2 Bft) 97,83 %
11.06.2021 17:18 27,5 C 30,0 C 24,5 C 57 % 1018,4 hPa 0,0 l/m 2 min 0 min 645 W/m 6,4 km/h (2 Bft) 97,87 %
11.06.2021 17:20 27,6 C 31,1 C 25,0 C 57 % 1018,3 hPa 0,0 l/m 2 min 0 min 668 W/m 6,4 km/h (2 Bft) 97,87 %
11.06.2021 17:22 27,7 C 31,7 C 25,0 C 56 % 1018,4 hPa 0,0 l/m 2 min 0 min 665 W/m 16,1 km/h (3 Bft) 97,87 %
11.06.2021 17:24 27,8 C 32,2 C 25,0 C 56 % 1018,4 hPa 0,0 l/m 2 min 0 min 664 W/m 16,1 km/h (3 Bft) 97,87 %
11.06.2021 17:26 27,8 C 32,2 C 25,6 C 56 % 1018,3 hPa 0,0 l/m 2 min 0 min 657 W/m 19,3 km/h (3 Bft) 97,87 %
11.06.2021 17:28 27,9 C 32,8 C 25,6 C 56 % 1018,3 hPa 0,0 l/m 2 min 0 min 657 W/m 19,3 km/h (3 Bft) 97,83 %
11.06.2021 17:30 28,0 C 32,2 C 25,6 C 56 % 1018,3 hPa 0,0 l/m 2 min 0 min 644 W/m 16,1 km/h (3 Bft) 97,87 %
11.06.2021 17:32 28,0 C 31,1 C 25,6 C 56 % 1018,4 hPa 0,0 l/m 2 min 0 min 630 W/m 19,3 km/h (3 Bft) 93,62 %
11.06.2021 17:34 28,0 C 31,1 C 25,0 C 56 % 1018,3 hPa 0,0 l/m 2 min 0 min 575 W/m 12,9 km/h (3 Bft) 97,87 %
11.06.2021 17:36 28,0 C 31,1 C 25,0 C 56 % 1018,3 hPa 0,0 l/m 2 min 0 min 553 W/m 16,1 km/h (3 Bft) 97,87 %
11.06.2021 17:38 28,0 C 31,1 C 25,0 C 56 % 1018,2 hPa 0,0 l/m 2 min 0 min 525 W/m 12,9 km/h (3 Bft) 93,62 %
11.06.2021 17:40 28,1 C 31,7 C 25,0 C 56 % 1018,2 hPa 0,0 l/m 2 min 0 min 537 W/m 16,1 km/h (3 Bft) 97,83 %
11.06.2021 17:42 28,1 C 32,2 C 25,0 C 56 % 1018,2 hPa 0,0 l/m 2 min 0 min 560 W/m 9,7 km/h (2 Bft) 95,74 %
11.06.2021 17:44 28,1 C 31,7 C 25,0 C 56 % 1018,3 hPa 0,0 l/m 2 min 0 min 558 W/m 9,7 km/h (2 Bft) 97,87 %
11.06.2021 17:46 28,2 C 31,7 C 25,6 C 56 % 1018,3 hPa 0,0 l/m 2 min 0 min 572 W/m 9,7 km/h (2 Bft) 95,74 %
11.06.2021 17:48 28,3 C 32,2 C 25,6 C 56 % 1018,3 hPa 0,0 l/m 2 min 0 min 578 W/m 16,1 km/h (3 Bft) 93,62 %
11.06.2021 17:50 28,3 C 32,2 C 25,6 C 56 % 1018,2 hPa 0,0 l/m 2 min 0 min 534 W/m 22,5 km/h (4 Bft) 97,87 %
11.06.2021 17:52 28,3 C 32,2 C 25,6 C 55 % 1018,3 hPa 0,0 l/m 2 min 0 min 496 W/m 12,9 km/h (3 Bft) 93,48 %
11.06.2021 17:54 28,3 C 31,7 C 25,6 C 56 % 1018,2 hPa 0,0 l/m 2 min 0 min 501 W/m 19,3 km/h (3 Bft) 95,74 %
11.06.2021 17:56 28,3 C 31,1 C 25,6 C 55 % 1018,2 hPa 0,0 l/m 2 min 0 min 458 W/m 12,9 km/h (3 Bft) 95,74 %
11.06.2021 17:58 28,3 C 31,1 C 25,6 C 55 % 1018,3 hPa 0,0 l/m 2 min 0 min 436 W/m 9,7 km/h (2 Bft) 95,74 %
11.06.2021 18:00 28,3 C 31,7 C 25,6 C 56 % 1018,2 hPa 0,0 l/m 2 min 0 min 517 W/m 12,9 km/h (3 Bft) 95,74 %
11.06.2021 18:02 28,2 C 31,7 C 25,6 C 56 % 1018,3 hPa 0,0 l/m 2 min 0 min 523 W/m 12,9 km/h (3 Bft) 95,74 %
11.06.2021 18:04 28,3 C 31,1 C 25,6 C 56 % 1018,2 hPa 0,0 l/m 2 min 0 min 525 W/m 9,7 km/h (2 Bft) 95,65 %
11.06.2021 18:08 28,2 C 29,4 C 25,0 C 56 % 1018,2 hPa 0,0 l/m 4 min 0 min 283 W/m 12,9 km/h (3 Bft) 95,74 %
11.06.2021 18:10 28,1 C 29,4 C 25,0 C 56 % 1018,2 hPa 0,0 l/m 2 min 0 min 403 W/m 9,7 km/h (2 Bft) 95,74 %
11.06.2021 18:12 28,1 C 30,0 C 25,0 C 57 % 1018,1 hPa 0,0 l/m 2 min 0 min 395 W/m 9,7 km/h (2 Bft) 95,74 %
11.06.2021 18:14 28,1 C 30,6 C 25,0 C 57 % 1018,1 hPa 0,0 l/m 2 min 0 min 398 W/m 9,7 km/h (2 Bft) 95,74 %
11.06.2021 18:16 28,1 C 30,6 C 25,0 C 57 % 1018,1 hPa 0,0 l/m 2 min 0 min 392 W/m 16,1 km/h (3 Bft) 95,65 %
11.06.2021 18:18 28,0 C 30,0 C 25,0 C 56 % 1018,1 hPa 0,0 l/m 2 min 0 min 421 W/m 22,5 km/h (4 Bft) 93,62 %
11.06.2021 18:20 28,0 C 30,0 C 25,0 C 56 % 1018,1 hPa 0,0 l/m 2 min 0 min 435 W/m 19,3 km/h (3 Bft) 95,74 %
11.06.2021 18:22 27,9 C 30,0 C 25,0 C 56 % 1018,1 hPa 0,0 l/m 2 min 0 min 405 W/m 9,7 km/h (2 Bft) 93,62 %
11.06.2021 18:24 27,9 C 29,4 C 24,5 C 56 % 1018,0 hPa 0,0 l/m 2 min 0 min 316 W/m 12,9 km/h (3 Bft) 95,74 %
11.06.2021 18:26 27,9 C 28,9 C 24,5 C 56 % 1018,0 hPa 0,0 l/m 0 min 0 min 236 W/m 9,7 km/h (2 Bft) 95,74 %
11.06.2021 18:28 27,8 C 28,9 C 24,5 C 56 % 1018,0 hPa 0,0 l/m 0 min 0 min 208 W/m 9,7 km/h (2 Bft) 95,65 %
11.06.2021 18:30 27,8 C 28,3 C 24,5 C 56 % 1018,0 hPa 0,0 l/m 2 min 0 min 257 W/m 12,9 km/h (3 Bft) 95,74 %
11.06.2021 18:32 27,6 C 28,3 C 24,5 C 57 % 1018,0 hPa 0,0 l/m 2 min 0 min 270 W/m 12,9 km/h (3 Bft) 95,74 %
11.06.2021 18:34 27,6 C 28,9 C 24,5 C 57 % 1018,0 hPa 0,0 l/m 2 min 0 min 307 W/m 12,9 km/h (3 Bft) 97,87 %
11.06.2021 18:36 27,6 C 29,4 C 24,5 C 58 % 1017,9 hPa 0,0 l/m 2 min 0 min 363 W/m 12,9 km/h (3 Bft) 97,87 %
11.06.2021 18:38 27,6 C 30,0 C 24,5 C 58 % 1017,9 hPa 0,0 l/m 2 min 0 min 386 W/m 9,7 km/h (2 Bft) 97,87 %
11.06.2021 18:40 27,6 C 30,6 C 25,0 C 58 % 1017,9 hPa 0,0 l/m 2 min 0 min 428 W/m 12,9 km/h (3 Bft) 95,65 %
11.06.2021 18:42 27,6 C 30,6 C 25,0 C 57 % 1017,9 hPa 0,0 l/m 2 min 0 min 424 W/m 12,9 km/h (3 Bft) 97,87 %
11.06.2021 18:44 27,6 C 30,0 C 25,0 C 58 % 1017,9 hPa 0,0 l/m 2 min 0 min 382 W/m 12,9 km/h (3 Bft) 97,87 %
11.06.2021 18:46 27,6 C 31,1 C 25,0 C 58 % 1017,9 hPa 0,0 l/m 2 min 0 min 389 W/m 9,7 km/h (2 Bft) 97,87 %
11.06.2021 18:48 27,7 C 30,6 C 25,0 C 58 % 1017,9 hPa 0,0 l/m 2 min 0 min 378 W/m 12,9 km/h (3 Bft) 97,87 %
11.06.2021 18:50 27,7 C 30,0 C 25,0 C 58 % 1017,9 hPa 0,0 l/m 2 min 0 min 373 W/m 9,7 km/h (2 Bft) 97,87 %
11.06.2021 18:52 27,7 C 30,0 C 25,0 C 57 % 1017,9 hPa 0,0 l/m 2 min 0 min 385 W/m 16,1 km/h (3 Bft) 100,00 %
11.06.2021 18:54 27,7 C 30,0 C 25,0 C 57 % 1017,9 hPa 0,0 l/m 2 min 0 min 387 W/m 9,7 km/h (2 Bft) 100,00 %
11.06.2021 18:56 27,8 C 30,0 C 25,0 C 57 % 1017,9 hPa 0,0 l/m 2 min 0 min 363 W/m 9,7 km/h (2 Bft) 100,00 %
11.06.2021 18:58 27,7 C 30,0 C 25,0 C 57 % 1017,9 hPa 0,0 l/m 2 min 0 min 347 W/m 6,4 km/h (2 Bft) 100,00 %
11.06.2021 19:00 27,6 C 29,4 C 25,0 C 57 % 1017,9 hPa 0,0 l/m 2 min 0 min 310 W/m 12,9 km/h (3 Bft) 100,00 %
11.06.2021 19:02 27,6 C 29,4 C 24,5 C 58 % 1017,9 hPa 0,0 l/m 2 min 0 min 329 W/m 9,7 km/h (2 Bft) 100,00 %
11.06.2021 19:04 27,6 C 29,4 C 25,0 C 58 % 1017,9 hPa 0,0 l/m 2 min 0 min 320 W/m 9,7 km/h (2 Bft) 91,30 %
11.06.2021 19:06 27,6 C 28,9 C 25,0 C 58 % 1017,9 hPa 0,0 l/m 2 min 0 min 277 W/m 9,7 km/h (2 Bft) 100,00 %
11.06.2021 19:08 27,6 C 28,3 C 24,5 C 58 % 1017,9 hPa 0,0 l/m 2 min 0 min 218 W/m 12,9 km/h (3 Bft) 100,00 %
11.06.2021 19:10 27,6 C 27,8 C 24,5 C 58 % 1017,9 hPa 0,0 l/m 2 min 0 min 206 W/m 9,7 km/h (2 Bft) 100,00 %
11.06.2021 19:12 27,5 C 27,2 C 24,5 C 58 % 1017,8 hPa 0,0 l/m 0 min 0 min 182 W/m 12,9 km/h (3 Bft) 97,87 %
11.06.2021 19:14 27,5 C 27,2 C 23,9 C 59 % 1017,9 hPa 0,0 l/m 2 min 0 min 186 W/m 6,4 km/h (2 Bft) 100,00 %
11.06.2021 19:16 27,4 C 27,2 C 23,9 C 58 % 1017,8 hPa 0,0 l/m 2 min 0 min 246 W/m 12,9 km/h (3 Bft) 97,83 %
11.06.2021 19:18 27,4 C 27,2 C 23,9 C 58 % 1017,8 hPa 0,0 l/m 2 min 0 min 216 W/m 9,7 km/h (2 Bft) 100,00 %
11.06.2021 19:20 27,3 C 27,2 C 23,9 C 58 % 1017,8 hPa 0,0 l/m 2 min 0 min 293 W/m 9,7 km/h (2 Bft) 100,00 %
11.06.2021 19:22 27,3 C 27,2 C 23,9 C 58 % 1017,8 hPa 0,0 l/m 2 min 0 min 309 W/m 12,9 km/h (3 Bft) 97,87 %
11.06.2021 19:24 27,3 C 27,2 C 23,9 C 59 % 1017,8 hPa 0,0 l/m 2 min 0 min 263 W/m 6,4 km/h (2 Bft) 97,87 %
11.06.2021 19:26 27,3 C 27,2 C 23,9 C 59 % 1017,9 hPa 0,0 l/m 2 min 0 min 266 W/m 9,7 km/h (2 Bft) 97,87 %
11.06.2021 19:28 27,2 C 26,7 C 23,9 C 59 % 1017,9 hPa 0,0 l/m 2 min 0 min 261 W/m 9,7 km/h (2 Bft) 97,83 %
11.06.2021 19:30 27,2 C 26,7 C 23,9 C 59 % 1017,9 hPa 0,0 l/m 2 min 0 min 252 W/m 9,7 km/h (2 Bft) 97,87 %
11.06.2021 19:32 27,1 C 26,7 C 23,9 C 59 % 1017,9 hPa 0,0 l/m 2 min 0 min 228 W/m 3,2 km/h (1 Bft) 97,87 %
11.06.2021 19:34 27,1 C 26,7 C 23,4 C 59 % 1017,9 hPa 0,0 l/m 2 min 0 min 249 W/m 3,2 km/h (1 Bft) 95,74 %
11.06.2021 19:36 27,1 C 26,7 C 23,4 C 59 % 1017,9 hPa 0,0 l/m 2 min 0 min 250 W/m 6,4 km/h (2 Bft) 97,87 %
11.06.2021 19:38 27,1 C 26,7 C 21,7 C 59 % 1017,9 hPa 0,0 l/m 2 min 0 min 236 W/m 6,4 km/h (2 Bft) 97,87 %
11.06.2021 19:40 27,1 C 26,7 C 21,1 C 60 % 1017,9 hPa 0,0 l/m 2 min 0 min 237 W/m 3,2 km/h (1 Bft) 97,83 %
11.06.2021 19:42 27,1 C 26,7 C 21,7 C 60 % 1017,9 hPa 0,0 l/m 2 min 0 min 217 W/m 9,7 km/h (2 Bft) 97,87 %
11.06.2021 19:44 27,0 C 26,1 C 22,3 C 60 % 1017,9 hPa 0,0 l/m 2 min 0 min 172 W/m 6,4 km/h (2 Bft) 97,87 %
11.06.2021 19:46 27,0 C 26,1 C 22,3 C 61 % 1017,9 hPa 0,0 l/m 2 min 0 min 172 W/m 3,2 km/h (1 Bft) 97,87 %
11.06.2021 19:48 27,0 C 26,1 C 22,3 C 61 % 1018,0 hPa 0,0 l/m 2 min 0 min 186 W/m 6,4 km/h (2 Bft) 97,87 %
11.06.2021 19:50 26,9 C 26,1 C 22,3 C 61 % 1017,9 hPa 0,0 l/m 2 min 0 min 167 W/m 9,7 km/h (2 Bft) 95,74 %
11.06.2021 19:52 26,8 C 26,1 C 22,8 C 60 % 1018,0 hPa 0,0 l/m 2 min 0 min 157 W/m 12,9 km/h (3 Bft) 97,83 %
11.06.2021 19:54 26,8 C 26,1 C 22,8 C 60 % 1018,0 hPa 0,0 l/m 2 min 0 min 163 W/m 9,7 km/h (2 Bft) 97,87 %
11.06.2021 19:56 26,7 C 26,1 C 22,8 C 60 % 1018,0 hPa 0,0 l/m 2 min 0 min 190 W/m 12,9 km/h (3 Bft) 97,87 %
11.06.2021 19:58 26,6 C 26,1 C 22,8 C 61 % 1018,0 hPa 0,0 l/m 2 min 0 min 157 W/m 12,9 km/h (3 Bft) 97,87 %
11.06.2021 20:00 26,6 C 26,1 C 22,8 C 61 % 1018,0 hPa 0,0 l/m 0 min 0 min 118 W/m 6,4 km/h (2 Bft) 97,87 %
11.06.2021 20:02 26,6 C 26,1 C 22,8 C 61 % 1018,0 hPa 0,0 l/m 0 min 0 min 110 W/m 9,7 km/h (2 Bft) 97,87 %
11.06.2021 20:04 26,6 C 26,1 C 22,8 C 61 % 1018,0 hPa 0,0 l/m 0 min 0 min 107 W/m 9,7 km/h (2 Bft) 97,83 %
11.06.2021 20:06 26,6 C 26,1 C 22,8 C 61 % 1018,0 hPa 0,0 l/m 0 min 0 min 107 W/m 9,7 km/h (2 Bft) 97,87 %
11.06.2021 20:08 26,5 C 26,1 C 22,8 C 61 % 1018,1 hPa 0,0 l/m 0 min 0 min 105 W/m 6,4 km/h (2 Bft) 100,00 %
11.06.2021 20:10 26,5 C 26,1 C 22,8 C 61 % 1018,0 hPa 0,0 l/m 0 min 0 min 104 W/m 9,7 km/h (2 Bft) 95,74 %
11.06.2021 20:12 26,5 C 26,1 C 22,8 C 61 % 1018,1 hPa 0,0 l/m 0 min 0 min 102 W/m 12,9 km/h (3 Bft) 97,87 %
11.06.2021 20:14 26,5 C 25,6 C 22,8 C 61 % 1018,1 hPa 0,0 l/m 0 min 0 min 101 W/m 9,7 km/h (2 Bft) 100,00 %
11.06.2021 20:16 26,4 C 25,6 C 22,8 C 60 % 1018,0 hPa 0,0 l/m 0 min 0 min 98 W/m 6,4 km/h (2 Bft) 100,00 %
11.06.2021 20:18 26,4 C 25,6 C 22,8 C 61 % 1018,0 hPa 0,0 l/m 0 min 0 min 97 W/m 6,4 km/h (2 Bft) 100,00 %
11.06.2021 20:20 26,4 C 25,6 C 22,8 C 61 % 1018,0 hPa 0,0 l/m 0 min 0 min 94 W/m 3,2 km/h (1 Bft) 100,00 %
11.06.2021 20:22 26,3 C 25,6 C 22,8 C 61 % 1018,2 hPa 0,0 l/m 0 min 0 min 90 W/m 9,7 km/h (2 Bft) 100,00 %
11.06.2021 20:24 26,3 C 25,6 C 22,8 C 62 % 1018,1 hPa 0,0 l/m 0 min 0 min 86 W/m 6,4 km/h (2 Bft) 100,00 %
11.06.2021 20:26 26,2 C 25,6 C 22,8 C 61 % 1018,2 hPa 0,0 l/m 0 min 0 min 82 W/m 9,7 km/h (2 Bft) 100,00 %
11.06.2021 20:28 26,2 C 25,6 C 22,8 C 61 % 1018,1 hPa 0,0 l/m 0 min 0 min 76 W/m 9,7 km/h (2 Bft) 100,00 %
11.06.2021 20:30 26,1 C 25,0 C 22,8 C 61 % 1018,1 hPa 0,0 l/m 0 min 0 min 69 W/m 9,7 km/h (2 Bft) 100,00 %
11.06.2021 20:32 26,1 C 25,0 C 22,8 C 61 % 1018,1 hPa 0,0 l/m 0 min 0 min 65 W/m 3,2 km/h (1 Bft) 100,00 %
11.06.2021 20:34 26,1 C 25,0 C 22,3 C 62 % 1018,2 hPa 0,0 l/m 0 min 0 min 63 W/m 6,4 km/h (2 Bft) 100,00 %
11.06.2021 20:36 26,0 C 25,0 C 22,3 C 62 % 1018,0 hPa 0,0 l/m 0 min 0 min 61 W/m 6,4 km/h (2 Bft) 100,00 %
11.06.2021 20:38 26,0 C 25,0 C 22,3 C 62 % 1018,2 hPa 0,0 l/m 0 min 0 min 58 W/m 12,9 km/h (3 Bft) 100,00 %
11.06.2021 20:40 26,0 C 25,0 C 22,3 C 63 % 1018,1 hPa 0,0 l/m 0 min 0 min 56 W/m 6,4 km/h (2 Bft) 100,00 %
11.06.2021 20:42 25,9 C 25,0 C 22,3 C 63 % 1018,1 hPa 0,0 l/m 0 min 0 min 57 W/m 9,7 km/h (2 Bft) 100,00 %
11.06.2021 20:44 25,9 C 25,0 C 22,3 C 63 % 1018,1 hPa 0,0 l/m 0 min 0 min 58 W/m 6,4 km/h (2 Bft) 100,00 %
11.06.2021 20:46 25,8 C 25,0 C 22,3 C 63 % 1018,1 hPa 0,0 l/m 0 min 0 min 58 W/m 6,4 km/h (2 Bft) 100,00 %
11.06.2021 20:48 25,7 C 24,4 C 22,3 C 64 % 1018,1 hPa 0,0 l/m 0 min 0 min 57 W/m 9,7 km/h (2 Bft) 97,87 %
11.06.2021 20:50 25,6 C 24,4 C 22,3 C 64 % 1018,2 hPa 0,0 l/m 0 min 0 min 56 W/m 9,7 km/h (2 Bft) 97,87 %
11.06.2021 20:52 25,6 C 24,4 C 21,7 C 64 % 1018,2 hPa 0,0 l/m 0 min 0 min 53 W/m 12,9 km/h (3 Bft) 95,65 %
11.06.2021 20:54 25,6 C 24,4 C 21,7 C 64 % 1018,1 hPa 0,0 l/m 0 min 0 min 49 W/m 9,7 km/h (2 Bft) 97,87 %
11.06.2021 20:56 25,5 C 24,4 C 21,7 C 64 % 1018,1 hPa 0,0 l/m 0 min 0 min 44 W/m 12,9 km/h (3 Bft) 97,87 %
11.06.2021 20:58 25,5 C 24,4 C 21,7 C 65 % 1018,2 hPa 0,0 l/m 0 min 0 min 39 W/m 9,7 km/h (2 Bft) 97,87 %
11.06.2021 21:00 25,5 C 23,9 C 21,7 C 65 % 1018,1 hPa 0,0 l/m 0 min 0 min 32 W/m 6,4 km/h (2 Bft) 97,87 %
11.06.2021 21:02 25,4 C 23,9 C 21,7 C 65 % 1018,1 hPa 0,0 l/m 0 min 0 min 29 W/m 6,4 km/h (2 Bft) 95,74 %
11.06.2021 21:04 25,4 C 23,9 C 21,7 C 66 % 1018,1 hPa 0,0 l/m 0 min 0 min 26 W/m 9,7 km/h (2 Bft) 97,83 %
11.06.2021 21:06 25,3 C 23,9 C 21,1 C 66 % 1018,1 hPa 0,0 l/m 0 min 0 min 24 W/m 9,7 km/h (2 Bft) 97,87 %
11.06.2021 21:08 25,3 C 23,9 C 21,1 C 66 % 1018,1 hPa 0,0 l/m 0 min 0 min 22 W/m 9,7 km/h (2 Bft) 95,74 %
11.06.2021 21:10 25,1 C 23,3 C 21,1 C 67 % 1018,1 hPa 0,0 l/m 0 min 0 min 20 W/m 6,4 km/h (2 Bft) 95,74 %
11.06.2021 21:12 25,1 C 23,3 C 21,1 C 67 % 1018,1 hPa 0,0 l/m 0 min 0 min 19 W/m 6,4 km/h (2 Bft) 95,74 %
11.06.2021 21:14 25,1 C 23,3 C 21,1 C 68 % 1018,2 hPa 0,0 l/m 0 min 0 min 18 W/m 6,4 km/h (2 Bft) 95,74 %
11.06.2021 21:16 25,0 C 23,3 C 21,1 C 68 % 1018,2 hPa 0,0 l/m 0 min 0 min 16 W/m 12,9 km/h (3 Bft) 93,48 %
11.06.2021 21:18 25,0 C 23,3 C 21,1 C 68 % 1018,2 hPa 0,0 l/m 0 min 0 min 15 W/m 9,7 km/h (2 Bft) 93,62 %
11.06.2021 21:20 24,9 C 23,3 C 21,1 C 68 % 1018,2 hPa 0,0 l/m 0 min 0 min 14 W/m 6,4 km/h (2 Bft) 95,74 %
11.06.2021 21:22 24,8 C 23,3 C 21,1 C 69 % 1018,1 hPa 0,0 l/m 0 min 0 min 12 W/m 6,4 km/h (2 Bft) 95,74 %
11.06.2021 21:24 24,7 C 23,3 C 20,6 C 69 % 1018,2 hPa 0,0 l/m 0 min 0 min 11 W/m 6,4 km/h (2 Bft) 95,74 %
11.06.2021 21:26 24,6 C 23,3 C 20,6 C 69 % 1018,2 hPa 0,0 l/m 0 min 0 min 9 W/m 6,4 km/h (2 Bft) 95,65 %
11.06.2021 21:28 24,6 C 23,3 C 20,6 C 69 % 1018,2 hPa 0,0 l/m 0 min 0 min 7 W/m 9,7 km/h (2 Bft) 95,74 %
11.06.2021 21:30 24,5 C 23,3 C 20,6 C 69 % 1018,2 hPa 0,0 l/m 0 min 0 min 6 W/m 12,9 km/h (3 Bft) 95,74 %
11.06.2021 21:32 24,5 C 23,3 C 20,6 C 70 % 1018,3 hPa 0,0 l/m 0 min 0 min 6 W/m 12,9 km/h (3 Bft) 95,74 %
11.06.2021 21:34 24,4 C 22,8 C 20,6 C 70 % 1018,3 hPa 0,0 l/m 0 min 0 min 8 W/m 6,4 km/h (2 Bft) 93,62 %
11.06.2021 21:36 24,4 C 22,8 C 20,6 C 70 % 1018,2 hPa 0,0 l/m 0 min 0 min 7 W/m 6,4 km/h (2 Bft) 93,62 %
11.06.2021 21:38 24,4 C 22,8 C 20,6 C 70 % 1018,2 hPa 0,0 l/m 0 min 0 min 5 W/m 6,4 km/h (2 Bft) 95,74 %
11.06.2021 21:40 24,3 C 22,8 C 20,6 C 70 % 1018,3 hPa 0,0 l/m 0 min 0 min 5 W/m 6,4 km/h (2 Bft) 95,65 %
11.06.2021 21:42 24,3 C 22,8 C 20,6 C 71 % 1018,3 hPa 0,0 l/m 0 min 0 min 3 W/m 6,4 km/h (2 Bft) 93,62 %
11.06.2021 21:44 24,3 C 22,8 C 20,6 C 71 % 1018,4 hPa 0,0 l/m 0 min 0 min 0 W/m 6,4 km/h (2 Bft) 95,74 %
11.06.2021 21:46 24,2 C 22,8 C 20,6 C 71 % 1018,3 hPa 0,0 l/m 0 min 0 min 0 W/m 3,2 km/h (1 Bft) 97,87 %
11.06.2021 21:48 24,1 C 22,8 C 20,0 C 71 % 1018,3 hPa 0,0 l/m 0 min 0 min 0 W/m 3,2 km/h (1 Bft) 95,74 %
11.06.2021 21:50 24,1 C 22,8 C 20,0 C 71 % 1018,3 hPa 0,0 l/m 0 min 0 min 0 W/m 3,2 km/h (1 Bft) 95,65 %
11.06.2021 21:52 24,1 C 22,8 C 20,0 C 71 % 1018,3 hPa 0,0 l/m 0 min 0 min 0 W/m 0,0 km/h (0 Bft) 95,74 %
11.06.2021 21:54 24,0 C 22,2 C 20,0 C 72 % 1018,4 hPa 0,0 l/m 0 min 0 min 0 W/m 6,4 km/h (2 Bft) 95,74 %
11.06.2021 21:56 24,0 C 22,2 C 20,0 C 72 % 1018,3 hPa 0,0 l/m 0 min 0 min 0 W/m 3,2 km/h (1 Bft) 93,62 %
11.06.2021 21:58 24,0 C 22,2 C 20,0 C 72 % 1018,4 hPa 0,0 l/m 0 min 0 min 0 W/m 3,2 km/h (1 Bft) 93,62 %
11.06.2021 22:00 23,9 C 22,2 C 20,0 C 72 % 1018,4 hPa 0,0 l/m 0 min 0 min 0 W/m 3,2 km/h (1 Bft) 95,74 %
11.06.2021 22:02 23,9 C 22,2 C 20,0 C 72 % 1018,5 hPa 0,0 l/m 0 min 0 min 0 W/m 3,2 km/h (1 Bft) 93,48 %
11.06.2021 22:04 23,8 C 22,2 C 20,0 C 73 % 1018,5 hPa 0,0 l/m 0 min 0 min 0 W/m 6,4 km/h (2 Bft) 95,74 %
11.06.2021 22:06 23,8 C 22,2 C 20,0 C 73 % 1018,6 hPa 0,0 l/m 0 min 0 min 0 W/m 6,4 km/h (2 Bft) 93,62 %
11.06.2021 22:08 23,7 C 22,2 C 20,0 C 73 % 1018,6 hPa 0,0 l/m 0 min 0 min 0 W/m 9,7 km/h (2 Bft) 97,87 %
11.06.2021 22:10 23,6 C 22,2 C 20,0 C 73 % 1018,6 hPa 0,0 l/m 0 min 0 min 0 W/m 12,9 km/h (3 Bft) 95,74 %
11.06.2021 22:12 23,6 C 22,2 C 20,0 C 73 % 1018,6 hPa 0,0 l/m 0 min 0 min 0 W/m 9,7 km/h (2 Bft) 97,87 %
11.06.2021 22:14 23,5 C 22,2 C 20,0 C 73 % 1018,7 hPa 0,0 l/m 0 min 0 min 0 W/m 12,9 km/h (3 Bft) 97,87 %
11.06.2021 22:16 23,5 C 22,2 C 20,0 C 74 % 1018,7 hPa 0,0 l/m 0 min 0 min 0 W/m 6,4 km/h (2 Bft) 97,83 %
11.06.2021 22:18 23,5 C 22,2 C 20,0 C 74 % 1018,8 hPa 0,0 l/m 0 min 0 min 0 W/m 0,0 km/h (0 Bft) 95,74 %
11.06.2021 22:20 23,4 C 22,2 C 20,0 C 74 % 1018,8 hPa 0,0 l/m 0 min 0 min 0 W/m 0,0 km/h (0 Bft) 97,87 %
11.06.2021 22:22 23,4 C 22,2 C 20,0 C 74 % 1018,8 hPa 0,0 l/m 0 min 0 min 0 W/m 16,1 km/h (3 Bft) 97,87 %
11.06.2021 22:24 23,3 C 22,2 C 20,0 C 74 % 1018,8 hPa 0,0 l/m 0 min 0 min 0 W/m 12,9 km/h (3 Bft) 97,87 %
11.06.2021 22:26 23,3 C 22,2 C 20,0 C 74 % 1018,8 hPa 0,0 l/m 0 min 0 min 0 W/m 19,3 km/h (3 Bft) 97,83 %
11.06.2021 22:28 23,2 C 21,7 C 19,5 C 74 % 1018,9 hPa 0,0 l/m 0 min 0 min 0 W/m 9,7 km/h (2 Bft) 93,62 %
11.06.2021 22:30 23,1 C 21,7 C 19,5 C 74 % 1018,9 hPa 0,0 l/m 0 min 0 min 0 W/m 16,1 km/h (3 Bft) 97,87 %
11.06.2021 22:32 23,0 C 21,7 C 19,5 C 74 % 1018,9 hPa 0,0 l/m 0 min 0 min 0 W/m 16,1 km/h (3 Bft) 97,87 %
11.06.2021 22:34 23,0 C 21,7 C 19,5 C 74 % 1018,9 hPa 0,0 l/m 0 min 0 min 0 W/m 12,9 km/h (3 Bft) 97,87 %
11.06.2021 22:36 22,9 C 21,1 C 19,5 C 74 % 1019,0 hPa 0,0 l/m 0 min 0 min 0 W/m 9,7 km/h (2 Bft) 97,87 %
11.06.2021 22:38 22,9 C 21,1 C 19,5 C 74 % 1019,0 hPa 0,0 l/m 0 min 0 min 0 W/m 19,3 km/h (3 Bft) 97,87 %
11.06.2021 22:40 22,8 C 21,1 C 19,5 C 74 % 1019,0 hPa 0,0 l/m 0 min 0 min 0 W/m 9,7 km/h (2 Bft) 97,87 %
11.06.2021 22:42 22,7 C 21,1 C 18,9 C 74 % 1019,0 hPa 0,0 l/m 0 min 0 min 0 W/m 9,7 km/h (2 Bft) 97,87 %
11.06.2021 22:46 22,6 C 21,1 C 18,9 C 74 % 1019,0 hPa 0,0 l/m 0 min 0 min 0 W/m 12,9 km/h (3 Bft) 98,78 %
11.06.2021 22:48 22,5 C 21,1 C 18,9 C 74 % 1019,0 hPa 0,0 l/m 0 min 0 min 0 W/m 12,9 km/h (3 Bft) 100,00 %
11.06.2021 22:50 22,4 C 21,1 C 18,9 C 74 % 1019,0 hPa 0,0 l/m 0 min 0 min 0 W/m 9,7 km/h (2 Bft) 98,28 %
11.06.2021 22:52 22,4 C 21,1 C 18,9 C 74 % 1019,0 hPa 0,0 l/m 0 min 0 min 0 W/m 12,9 km/h (3 Bft) 97,87 %
11.06.2021 22:54 22,3 C 21,1 C 18,9 C 74 % 1019,0 hPa 0,0 l/m 0 min 0 min 0 W/m 12,9 km/h (3 Bft) 100,00 %
11.06.2021 22:56 22,3 C 21,1 C 18,9 C 74 % 1019,0 hPa 0,0 l/m 0 min 0 min 0 W/m 9,7 km/h (2 Bft) 100,00 %
11.06.2021 22:58 22,2 C 21,1 C 18,9 C 75 % 1019,0 hPa 0,0 l/m 0 min 0 min 0 W/m 12,9 km/h (3 Bft) 100,00 %
11.06.2021 23:00 22,2 C 20,6 C 18,9 C 75 % 1019,0 hPa 0,0 l/m 0 min 0 min 0 W/m 6,4 km/h (2 Bft) 100,00 %
11.06.2021 23:02 22,1 C 20,6 C 18,9 C 75 % 1019,0 hPa 0,0 l/m 0 min 0 min 0 W/m 3,2 km/h (1 Bft) 100,00 %
11.06.2021 23:04 22,1 C 20,6 C 18,9 C 75 % 1019,0 hPa 0,0 l/m 0 min 0 min 0 W/m 3,2 km/h (1 Bft) 100,00 %
11.06.2021 23:06 22,1 C 20,6 C 18,4 C 75 % 1018,9 hPa 0,0 l/m 0 min 0 min 0 W/m 3,2 km/h (1 Bft) 97,83 %
11.06.2021 23:08 22,1 C 20,6 C 18,4 C 75 % 1018,9 hPa 0,0 l/m 0 min 0 min 0 W/m 3,2 km/h (1 Bft) 100,00 %
11.06.2021 23:10 22,1 C 20,6 C 18,4 C 75 % 1019,0 hPa 0,0 l/m 0 min 0 min 0 W/m 3,2 km/h (1 Bft) 100,00 %
11.06.2021 23:12 22,0 C 20,6 C 18,4 C 75 % 1019,0 hPa 0,0 l/m 0 min 0 min 0 W/m 3,2 km/h (1 Bft) 100,00 %
11.06.2021 23:14 22,0 C 20,6 C 18,4 C 76 % 1019,0 hPa 0,0 l/m 0 min 0 min 0 W/m 3,2 km/h (1 Bft) 100,00 %
11.06.2021 23:16 21,9 C 20,6 C 18,4 C 76 % 1019,1 hPa 0,0 l/m 0 min 0 min 0 W/m 3,2 km/h (1 Bft) 100,00 %
11.06.2021 23:18 21,9 C 20,6 C 18,4 C 76 % 1019,1 hPa 0,0 l/m 0 min 0 min 0 W/m 3,2 km/h (1 Bft) 100,00 %
11.06.2021 23:20 21,9 C 20,6 C 18,4 C 76 % 1019,1 hPa 0,0 l/m 0 min 0 min 0 W/m 9,7 km/h (2 Bft) 100,00 %
11.06.2021 23:22 21,8 C 20,6 C 18,4 C 76 % 1019,1 hPa 0,0 l/m 0 min 0 min 0 W/m 6,4 km/h (2 Bft) 100,00 %
11.06.2021 23:24 21,8 C 20,6 C 18,4 C 76 % 1019,1 hPa 0,0 l/m 0 min 0 min 0 W/m 6,4 km/h (2 Bft) 100,00 %
11.06.2021 23:26 21,7 C 20,6 C 18,4 C 76 % 1019,1 hPa 0,0 l/m 0 min 0 min 0 W/m 6,4 km/h (2 Bft) 100,00 %
11.06.2021 23:28 21,6 C 20,6 C 18,4 C 77 % 1019,1 hPa 0,0 l/m 0 min 0 min 0 W/m 6,4 km/h (2 Bft) 100,00 %
11.06.2021 23:30 21,6 C 20,6 C 18,4 C 76 % 1019,1 hPa 0,0 l/m 0 min 0 min 0 W/m 12,9 km/h (3 Bft) 100,00 %
11.06.2021 23:32 21,5 C 20,6 C 18,4 C 76 % 1019,1 hPa 0,0 l/m 0 min 0 min 0 W/m 6,4 km/h (2 Bft) 100,00 %
11.06.2021 23:34 21,5 C 20,6 C 18,4 C 76 % 1019,1 hPa 0,0 l/m 0 min 0 min 0 W/m 6,4 km/h (2 Bft) 100,00 %
11.06.2021 23:36 21,5 C 20,6 C 18,4 C 77 % 1019,1 hPa 0,0 l/m 0 min 0 min 0 W/m 6,4 km/h (2 Bft) 100,00 %
11.06.2021 23:38 21,5 C 20,6 C 18,4 C 77 % 1019,1 hPa 0,0 l/m 0 min 0 min 0 W/m 9,7 km/h (2 Bft) 100,00 %
11.06.2021 23:40 21,5 C 20,6 C 18,4 C 77 % 1019,1 hPa 0,0 l/m 0 min 0 min 0 W/m 9,7 km/h (2 Bft) 97,22 %
11.06.2021 23:42 21,4 C 20,6 C 18,4 C 77 % 1019,1 hPa 0,0 l/m 0 min 0 min 0 W/m 6,4 km/h (2 Bft) 100,00 %
11.06.2021 23:44 21,4 C 20,6 C 18,4 C 77 % 1019,1 hPa 0,0 l/m 0 min 0 min 0 W/m 9,7 km/h (2 Bft) 100,00 %
11.06.2021 23:46 21,4 C 20,6 C 18,4 C 77 % 1019,1 hPa 0,0 l/m 0 min 0 min 0 W/m 12,9 km/h (3 Bft) 100,00 %
11.06.2021 23:48 21,4 C 20,6 C 18,4 C 77 % 1019,2 hPa 0,0 l/m 0 min 0 min 0 W/m 6,4 km/h (2 Bft) 97,87 %
11.06.2021 23:50 21,3 C 20,6 C 18,4 C 78 % 1019,2 hPa 0,0 l/m 0 min 0 min 0 W/m 12,9 km/h (3 Bft) 97,87 %
11.06.2021 23:52 21,3 C 20,6 C 17,8 C 78 % 1019,2 hPa 0,0 l/m 0 min 0 min 0 W/m 9,7 km/h (2 Bft) 100,00 %
11.06.2021 23:54 21,3 C 20,0 C 17,8 C 78 % 1019,2 hPa 0,0 l/m 0 min 0 min 0 W/m 6,4 km/h (2 Bft) 100,00 %
11.06.2021 23:56 21,3 C 20,0 C 17,8 C 78 % 1019,3 hPa 0,0 l/m 0 min 0 min 0 W/m 12,9 km/h (3 Bft) 97,87 %
11.06.2021 23:58 21,2 C 20,0 C 17,8 C 78 % 1019,3 hPa 0,0 l/m 0 min 0 min 0 W/m 16,1 km/h (3 Bft) 100,00 %
_ Min-Zeit 05:46 04:46 05:24 16:12 19:12 - - - - 01:56 03:26
Minimum _ 16,6 C 15,6 C 13,9 C 54 % 1017,8 hPa - - - - 0,0 km/h (0 Bft) 89,36 %
_ Max-Zeit 16:10 17:28 13:24 06:08 10:14 00:00 12:08 00:00 14:22 10:02 00:00
Maximum _ 28,5 C 32,8 C 36,7 C 93 % 1020,2 hPa 0,0 l/m 4 min 0 min 1069 W/m 25,7 km/h
SO (4 Bft)
100,00 %
Durchschnitt _ 22,9 C 23,2 C 21,1 C 73 % 1019,2 hPa #0,0 l/m #9:56 h #0 min. 424 W/m 7,9 km/h (2 Bft) 97,64 %
© 2021 W. Hausmann